PWSweather.com
Personal Weather Stations
Station Observations
DL5ARK
SonnebergDE

SonnebergDE

Lat: 50.34904861, Lon: 11.18112087

Elevation: 1214

Station Type: Selfmade

http://www.sumbarg.de

High Low Average
Temperature 36.4°F2.4°C 31.6°F-0.2°C 32.9°F0.5°C
Dew Point 35.5°F1.9°C 33.0°F0.6°C 34.2°F1.2°C
Winds 6.4 mph 10.3 kmh Calm Calm 1.0 mph S1.6 kmh S
Wind Gusts 6.5 mph10.5 kmh -- 1.0 mph1.6 kmh
Humidity 86% 75% 81%
Pressure 30.08 in1018.6 mb 30.00 in1015.9 mb -
Precipitation 0.00 in0.0 mm - -
Hour Temp Dew Point Humidity Winds Wind Gusts Pressure Precip Precip Rate Daily Precip Total
12:02 AM 32.6°F0.3°C 34.9°F1.6°C 85% Calm Calm -- 30.05 in1017.6 mb 0.00 in0.0 mm 0.00 in0.0 mm 0.00 in0.0 mm
12:05 AM 32.5°F0.3°C 35.2°F1.8°C 85% 1.6 mph ESE2.6 kmh ESE 1.6 mph2.6 kmh 30.04 in1017.3 mb 0.00 in0.0 mm 0.00 in0.0 mm 0.00 in0.0 mm
12:08 AM 32.5°F0.3°C 35.1°F1.7°C 85% 0.4 mph ESE0.6 kmh ESE 0.4 mph0.6 kmh 30.04 in1017.3 mb 0.00 in0.0 mm 0.00 in0.0 mm 0.00 in0.0 mm
12:11 AM 32.5°F0.3°C 35.1°F1.7°C 85% 1.6 mph ESE2.6 kmh ESE 1.6 mph2.6 kmh 30.05 in1017.6 mb 0.00 in0.0 mm 0.00 in0.0 mm 0.00 in0.0 mm
12:14 AM 32.6°F0.3°C 35.0°F1.7°C 85% Calm Calm -- 30.04 in1017.3 mb 0.00 in0.0 mm 0.00 in0.0 mm 0.00 in0.0 mm
12:17 AM 32.5°F0.3°C 35.2°F1.8°C 85% Calm Calm -- 30.04 in1017.3 mb 0.00 in0.0 mm 0.00 in0.0 mm 0.00 in0.0 mm
12:20 AM 32.5°F0.3°C 35.2°F1.8°C 85% Calm Calm -- 30.04 in1017.3 mb 0.00 in0.0 mm 0.00 in0.0 mm 0.00 in0.0 mm
12:23 AM 32.5°F0.3°C 35.2°F1.8°C 85% Calm Calm -- 30.04 in1017.3 mb 0.00 in0.0 mm 0.00 in0.0 mm 0.00 in0.0 mm
12:26 AM 32.5°F0.3°C 35.0°F1.7°C 85% 1.2 mph SE1.9 kmh SE 1.2 mph1.9 kmh 30.04 in1017.3 mb 0.00 in0.0 mm 0.00 in0.0 mm 0.00 in0.0 mm
12:29 AM 32.3°F0.2°C 35.2°F1.8°C 85% Calm Calm -- 30.04 in1017.3 mb 0.00 in0.0 mm 0.00 in0.0 mm 0.00 in0.0 mm
12:32 AM 32.3°F0.2°C 35.2°F1.8°C 86% 0.4 mph NNW0.6 kmh NNW 0.4 mph0.6 kmh 30.04 in1017.3 mb 0.00 in0.0 mm 0.00 in0.0 mm 0.00 in0.0 mm
12:35 AM 32.3°F0.2°C 35.0°F1.7°C 85% Calm Calm -- 30.04 in1017.3 mb 0.00 in0.0 mm 0.00 in0.0 mm 0.00 in0.0 mm
12:38 AM 32.2°F0.1°C 35.3°F1.8°C 86% Calm Calm -- 30.04 in1017.3 mb 0.00 in0.0 mm 0.00 in0.0 mm 0.00 in0.0 mm
12:41 AM 32.2°F0.1°C 35.2°F1.8°C 86% 0.4 mph NNW0.6 kmh NNW 0.4 mph0.6 kmh 30.04 in1017.3 mb 0.00 in0.0 mm 0.00 in0.0 mm 0.00 in0.0 mm
12:44 AM 32.2°F0.1°C 35.3°F1.8°C 86% Calm Calm -- 30.04 in1017.3 mb 0.00 in0.0 mm 0.00 in0.0 mm 0.00 in0.0 mm
12:47 AM 32.2°F0.1°C 35.5°F1.9°C 86% Calm Calm -- 30.05 in1017.6 mb 0.00 in0.0 mm 0.00 in0.0 mm 0.00 in0.0 mm
12:50 AM 32.1°F0.1°C 35.0°F1.7°C 85% Calm Calm -- 30.05 in1017.6 mb 0.00 in0.0 mm 0.00 in0.0 mm 0.00 in0.0 mm
12:53 AM 32.0°F0.0°C 34.8°F1.6°C 85% Calm Calm -- 30.05 in1017.6 mb 0.00 in0.0 mm 0.00 in0.0 mm 0.00 in0.0 mm
12:56 AM 32.0°F0.0°C 35.1°F1.7°C 85% Calm Calm -- 30.05 in1017.6 mb 0.00 in0.0 mm 0.00 in0.0 mm 0.00 in0.0 mm
12:59 AM 32.1°F0.1°C 35.3°F1.8°C 86% Calm Calm -- 30.05 in1017.6 mb 0.00 in0.0 mm 0.00 in0.0 mm 0.00 in0.0 mm
01:02 AM 32.3°F0.2°C 35.3°F1.8°C 86% Calm Calm -- 30.05 in1017.6 mb 0.00 in0.0 mm 0.00 in0.0 mm 0.00 in0.0 mm
01:05 AM 32.2°F0.1°C 35.2°F1.8°C 86% Calm Calm -- 30.05 in1017.6 mb 0.00 in0.0 mm 0.00 in0.0 mm 0.00 in0.0 mm
01:08 AM 32.2°F0.1°C 35.3°F1.8°C 86% Calm Calm -- 30.05 in1017.6 mb 0.00 in0.0 mm 0.00 in0.0 mm 0.00 in0.0 mm
01:11 AM 32.2°F0.1°C 35.5°F1.9°C 86% Calm Calm -- 30.05 in1017.6 mb 0.00 in0.0 mm 0.00 in0.0 mm 0.00 in0.0 mm
01:14 AM 32.3°F0.2°C 35.1°F1.7°C 85% Calm Calm -- 30.05 in1017.6 mb 0.00 in0.0 mm 0.00 in0.0 mm 0.00 in0.0 mm
01:17 AM 32.1°F0.1°C 35.1°F1.7°C 85% Calm Calm -- 30.04 in1017.3 mb 0.00 in0.0 mm 0.00 in0.0 mm 0.00 in0.0 mm
01:20 AM 32.1°F0.1°C 35.2°F1.8°C 85% Calm Calm -- 30.05 in1017.6 mb 0.00 in0.0 mm 0.00 in0.0 mm 0.00 in0.0 mm
01:23 AM 32.5°F0.3°C 35.2°F1.8°C 85% Calm Calm -- 30.04 in1017.3 mb 0.00 in0.0 mm 0.00 in0.0 mm 0.00 in0.0 mm
01:26 AM 32.5°F0.3°C 35.0°F1.7°C 84% Calm Calm -- 30.04 in1017.3 mb 0.00 in0.0 mm 0.00 in0.0 mm 0.00 in0.0 mm
01:29 AM 32.3°F0.2°C 34.7°F1.5°C 84% Calm Calm -- 30.04 in1017.3 mb 0.00 in0.0 mm 0.00 in0.0 mm 0.00 in0.0 mm
01:32 AM 32.6°F0.3°C 34.1°F1.2°C 82% 0.8 mph SE1.3 kmh SE 0.8 mph1.3 kmh 30.04 in1017.3 mb 0.00 in0.0 mm 0.00 in0.0 mm 0.00 in0.0 mm
01:35 AM 32.3°F0.2°C 34.1°F1.2°C 82% Calm Calm -- 30.04 in1017.3 mb 0.00 in0.0 mm 0.00 in0.0 mm 0.00 in0.0 mm
01:38 AM 32.2°F0.1°C 34.2°F1.2°C 82% Calm Calm -- 30.04 in1017.3 mb 0.00 in0.0 mm 0.00 in0.0 mm 0.00 in0.0 mm
01:41 AM 32.3°F0.2°C 34.5°F1.4°C 83% Calm Calm -- 30.04 in1017.3 mb 0.00 in0.0 mm 0.00 in0.0 mm 0.00 in0.0 mm
01:44 AM 32.3°F0.2°C 34.3°F1.3°C 83% Calm Calm -- 30.04 in1017.3 mb 0.00 in0.0 mm 0.00 in0.0 mm 0.00 in0.0 mm
01:47 AM 32.1°F0.1°C 34.7°F1.5°C 83% Calm Calm -- 30.04 in1017.3 mb 0.00 in0.0 mm 0.00 in0.0 mm 0.00 in0.0 mm
01:50 AM 32.2°F0.1°C 34.5°F1.4°C 83% Calm Calm -- 30.04 in1017.3 mb 0.00 in0.0 mm 0.00 in0.0 mm 0.00 in0.0 mm
01:53 AM 32.0°F0.0°C 34.6°F1.4°C 83% Calm Calm -- 30.04 in1017.3 mb 0.00 in0.0 mm 0.00 in0.0 mm 0.00 in0.0 mm
01:56 AM 32.0°F0.0°C 34.6°F1.4°C 83% Calm Calm -- 30.04 in1017.3 mb 0.00 in0.0 mm 0.00 in0.0 mm 0.00 in0.0 mm
01:59 AM 32.0°F0.0°C 34.7°F1.5°C 83% Calm Calm -- 30.04 in1017.3 mb 0.00 in0.0 mm 0.00 in0.0 mm 0.00 in0.0 mm
02:02 AM 32.0°F0.0°C 34.6°F1.4°C 83% 1.2 mph WSW1.9 kmh WSW 1.2 mph1.9 kmh 30.04 in1017.3 mb 0.00 in0.0 mm 0.00 in0.0 mm 0.00 in0.0 mm
02:05 AM 32.1°F0.1°C 34.7°F1.5°C 84% Calm Calm -- 30.04 in1017.3 mb 0.00 in0.0 mm 0.00 in0.0 mm 0.00 in0.0 mm
02:08 AM 32.0°F0.0°C 34.7°F1.5°C 83% Calm Calm -- 30.04 in1017.3 mb 0.00 in0.0 mm 0.00 in0.0 mm 0.00 in0.0 mm
02:11 AM 32.1°F0.1°C 34.4°F1.3°C 83% Calm Calm -- 30.04 in1017.3 mb 0.00 in0.0 mm 0.00 in0.0 mm 0.00 in0.0 mm
02:14 AM 32.2°F0.1°C 34.4°F1.3°C 83% Calm Calm -- 30.04 in1017.3 mb 0.00 in0.0 mm 0.00 in0.0 mm 0.00 in0.0 mm
02:17 AM 32.2°F0.1°C 34.2°F1.2°C 83% Calm Calm -- 30.04 in1017.3 mb 0.00 in0.0 mm 0.00 in0.0 mm 0.00 in0.0 mm
02:20 AM 32.3°F0.2°C 33.3°F0.7°C 81% 1.6 mph SE2.6 kmh SE 1.6 mph2.6 kmh 30.05 in1017.6 mb 0.00 in0.0 mm 0.00 in0.0 mm 0.00 in0.0 mm
02:23 AM 32.3°F0.2°C 33.4°F0.8°C 81% Calm Calm -- 30.05 in1017.6 mb 0.00 in0.0 mm 0.00 in0.0 mm 0.00 in0.0 mm
02:26 AM 32.3°F0.2°C 33.5°F0.8°C 81% Calm Calm -- 30.05 in1017.6 mb 0.00 in0.0 mm 0.00 in0.0 mm 0.00 in0.0 mm
02:29 AM 32.3°F0.2°C 33.7°F0.9°C 81% Calm Calm -- 30.05 in1017.6 mb 0.00 in0.0 mm 0.00 in0.0 mm 0.00 in0.0 mm
02:32 AM 32.2°F0.1°C 33.8°F1.0°C 82% 0.4 mph ESE0.6 kmh ESE 0.4 mph0.6 kmh 30.06 in1017.9 mb 0.00 in0.0 mm 0.00 in0.0 mm 0.00 in0.0 mm
02:35 AM 32.2°F0.1°C 34.0°F1.1°C 82% Calm Calm -- 30.06 in1017.9 mb 0.00 in0.0 mm 0.00 in0.0 mm 0.00 in0.0 mm
02:38 AM 32.2°F0.1°C 33.8°F1.0°C 81% Calm Calm -- 30.05 in1017.6 mb 0.00 in0.0 mm 0.00 in0.0 mm 0.00 in0.0 mm
02:41 AM 32.1°F0.1°C 33.8°F1.0°C 81% Calm Calm -- 30.06 in1017.9 mb 0.00 in0.0 mm 0.00 in0.0 mm 0.00 in0.0 mm
02:44 AM 32.1°F0.1°C 33.5°F0.8°C 80% Calm Calm -- 30.05 in1017.6 mb 0.00 in0.0 mm 0.00 in0.0 mm 0.00 in0.0 mm
02:47 AM 32.0°F0.0°C 34.1°F1.2°C 82% Calm Calm -- 30.05 in1017.6 mb 0.00 in0.0 mm 0.00 in0.0 mm 0.00 in0.0 mm
02:50 AM 32.0°F0.0°C 34.0°F1.1°C 82% Calm Calm -- 30.06 in1017.9 mb 0.00 in0.0 mm 0.00 in0.0 mm 0.00 in0.0 mm
02:53 AM 32.0°F0.0°C 33.7°F0.9°C 81% Calm Calm -- 30.05 in1017.6 mb 0.00 in0.0 mm 0.00 in0.0 mm 0.00 in0.0 mm
02:56 AM 32.0°F0.0°C 34.1°F1.2°C 82% Calm Calm -- 30.06 in1017.9 mb 0.00 in0.0 mm 0.00 in0.0 mm 0.00 in0.0 mm
02:59 AM 31.9°F-0.1°C 34.2°F1.2°C 83% Calm Calm -- 30.05 in1017.6 mb 0.00 in0.0 mm 0.00 in0.0 mm 0.00 in0.0 mm
03:02 AM 31.9°F-0.1°C 34.2°F1.2°C 83% Calm Calm -- 30.06 in1017.9 mb 0.00 in0.0 mm 0.00 in0.0 mm 0.00 in0.0 mm
03:05 AM 31.9°F-0.1°C 34.4°F1.3°C 83% Calm Calm -- 30.06 in1017.9 mb 0.00 in0.0 mm 0.00 in0.0 mm 0.00 in0.0 mm
03:08 AM 31.9°F-0.1°C 34.4°F1.3°C 84% Calm Calm -- 30.06 in1017.9 mb 0.00 in0.0 mm 0.00 in0.0 mm 0.00 in0.0 mm
03:11 AM 31.9°F-0.1°C 34.1°F1.2°C 83% Calm Calm -- 30.06 in1017.9 mb 0.00 in0.0 mm 0.00 in0.0 mm 0.00 in0.0 mm
03:14 AM 31.9°F-0.1°C 34.5°F1.4°C 84% Calm Calm -- 30.06 in1017.9 mb 0.00 in0.0 mm 0.00 in0.0 mm 0.00 in0.0 mm
03:17 AM 31.9°F-0.1°C 34.3°F1.3°C 84% Calm Calm -- 30.06 in1017.9 mb 0.00 in0.0 mm 0.00 in0.0 mm 0.00 in0.0 mm
03:20 AM 31.9°F-0.1°C 34.6°F1.4°C 84% Calm Calm -- 30.06 in1017.9 mb 0.00 in0.0 mm 0.00 in0.0 mm 0.00 in0.0 mm
03:23 AM 31.9°F-0.1°C 34.3°F1.3°C 84% Calm Calm -- 30.06 in1017.9 mb 0.00 in0.0 mm 0.00 in0.0 mm 0.00 in0.0 mm
03:26 AM 31.9°F-0.1°C 34.4°F1.3°C 84% Calm Calm -- 30.06 in1017.9 mb 0.00 in0.0 mm 0.00 in0.0 mm 0.00 in0.0 mm
03:29 AM 31.9°F-0.1°C 34.4°F1.3°C 84% 1.2 mph NNW1.9 kmh NNW 1.2 mph1.9 kmh 30.06 in1017.9 mb 0.00 in0.0 mm 0.00 in0.0 mm 0.00 in0.0 mm
03:32 AM 31.9°F-0.1°C 34.5°F1.4°C 84% 1.6 mph E2.6 kmh E 1.6 mph2.6 kmh 30.06 in1017.9 mb 0.00 in0.0 mm 0.00 in0.0 mm 0.00 in0.0 mm
03:35 AM 32.0°F0.0°C 34.3°F1.3°C 84% Calm Calm -- 30.06 in1017.9 mb 0.00 in0.0 mm 0.00 in0.0 mm 0.00 in0.0 mm
03:38 AM 32.1°F0.1°C 33.6°F0.9°C 82% 1.2 mph ESE1.9 kmh ESE 1.2 mph1.9 kmh 30.06 in1017.9 mb 0.00 in0.0 mm 0.00 in0.0 mm 0.00 in0.0 mm
03:41 AM 31.9°F-0.1°C 33.9°F1.1°C 83% Calm Calm -- 30.06 in1017.9 mb 0.00 in0.0 mm 0.00 in0.0 mm 0.00 in0.0 mm
03:44 AM 31.9°F-0.1°C 33.6°F0.9°C 82% Calm Calm -- 30.06 in1017.9 mb 0.00 in0.0 mm 0.00 in0.0 mm 0.00 in0.0 mm
03:47 AM 31.9°F-0.1°C 33.5°F0.8°C 82% 2.0 mph NNW3.2 kmh NNW 2.0 mph3.2 kmh 30.06 in1017.9 mb 0.00 in0.0 mm 0.00 in0.0 mm 0.00 in0.0 mm
03:50 AM 32.1°F0.1°C 33.8°F1.0°C 82% 1.6 mph ESE2.6 kmh ESE 1.6 mph2.6 kmh 30.06 in1017.9 mb 0.00 in0.0 mm 0.00 in0.0 mm 0.00 in0.0 mm
03:53 AM 31.9°F-0.1°C 33.7°F0.9°C 82% Calm Calm -- 30.06 in1017.9 mb 0.00 in0.0 mm 0.00 in0.0 mm 0.00 in0.0 mm
03:56 AM 31.8°F-0.1°C 33.5°F0.8°C 82% 0.4 mph ESE0.6 kmh ESE 0.4 mph0.6 kmh 30.06 in1017.9 mb 0.00 in0.0 mm 0.00 in0.0 mm 0.00 in0.0 mm
03:59 AM 31.9°F-0.1°C 33.8°F1.0°C 82% Calm Calm -- 30.06 in1017.9 mb 0.00 in0.0 mm 0.00 in0.0 mm 0.00 in0.0 mm
04:02 AM 31.9°F-0.1°C 33.6°F0.9°C 82% Calm Calm -- 30.06 in1017.9 mb 0.00 in0.0 mm 0.00 in0.0 mm 0.00 in0.0 mm
04:05 AM 31.9°F-0.1°C 33.7°F0.9°C 82% 0.4 mph ESE0.6 kmh ESE 0.4 mph0.6 kmh 30.06 in1017.9 mb 0.00 in0.0 mm 0.00 in0.0 mm 0.00 in0.0 mm
04:08 AM 31.9°F-0.1°C 33.5°F0.8°C 82% Calm Calm -- 30.06 in1017.9 mb 0.00 in0.0 mm 0.00 in0.0 mm 0.00 in0.0 mm
04:11 AM 31.8°F-0.1°C 33.9°F1.1°C 82% Calm Calm -- 30.06 in1017.9 mb 0.00 in0.0 mm 0.00 in0.0 mm 0.00 in0.0 mm
04:17 AM 31.8°F-0.1°C 34.1°F1.2°C 82% Calm Calm -- 30.06 in1017.9 mb 0.00 in0.0 mm 0.00 in0.0 mm 0.00 in0.0 mm
04:20 AM 31.9°F-0.1°C 33.8°F1.0°C 82% Calm Calm -- 30.06 in1017.9 mb 0.00 in0.0 mm 0.00 in0.0 mm 0.00 in0.0 mm
04:23 AM 31.9°F-0.1°C 33.6°F0.9°C 82% Calm Calm -- 30.06 in1017.9 mb 0.00 in0.0 mm 0.00 in0.0 mm 0.00 in0.0 mm
04:26 AM 31.9°F-0.1°C 33.6°F0.9°C 82% Calm Calm -- 30.07 in1018.3 mb 0.00 in0.0 mm 0.00 in0.0 mm 0.00 in0.0 mm
04:29 AM 31.8°F-0.1°C 33.9°F1.1°C 82% Calm Calm -- 30.06 in1017.9 mb 0.00 in0.0 mm 0.00 in0.0 mm 0.00 in0.0 mm
04:32 AM 31.8°F-0.1°C 34.1°F1.2°C 83% Calm Calm -- 30.06 in1017.9 mb 0.00 in0.0 mm 0.00 in0.0 mm 0.00 in0.0 mm
04:35 AM 31.7°F-0.2°C 34.2°F1.2°C 83% Calm Calm -- 30.06 in1017.9 mb 0.00 in0.0 mm 0.00 in0.0 mm 0.00 in0.0 mm
04:38 AM 31.9°F-0.1°C 34.1°F1.2°C 83% Calm Calm -- 30.06 in1017.9 mb 0.00 in0.0 mm 0.00 in0.0 mm 0.00 in0.0 mm
04:41 AM 31.9°F-0.1°C 34.1°F1.2°C 83% Calm Calm -- 30.06 in1017.9 mb 0.00 in0.0 mm 0.00 in0.0 mm 0.00 in0.0 mm
04:44 AM 31.8°F-0.1°C 34.1°F1.2°C 83% Calm Calm -- 30.06 in1017.9 mb 0.00 in0.0 mm 0.00 in0.0 mm 0.00 in0.0 mm
04:47 AM 31.8°F-0.1°C 34.0°F1.1°C 83% Calm Calm -- 30.06 in1017.9 mb 0.00 in0.0 mm 0.00 in0.0 mm 0.00 in0.0 mm
04:50 AM 31.8°F-0.1°C 34.0°F1.1°C 82% Calm Calm -- 30.06 in1017.9 mb 0.00 in0.0 mm 0.00 in0.0 mm 0.00 in0.0 mm
04:53 AM 31.8°F-0.1°C 33.9°F1.1°C 83% Calm Calm -- 30.06 in1017.9 mb 0.00 in0.0 mm 0.00 in0.0 mm 0.00 in0.0 mm
04:56 AM 31.9°F-0.1°C 34.2°F1.2°C 83% Calm Calm -- 30.06 in1017.9 mb 0.00 in0.0 mm 0.00 in0.0 mm 0.00 in0.0 mm
04:59 AM 31.9°F-0.1°C 33.8°F1.0°C 82% Calm Calm -- 30.06 in1017.9 mb 0.00 in0.0 mm 0.00 in0.0 mm 0.00 in0.0 mm
05:02 AM 31.9°F-0.1°C 34.0°F1.1°C 83% Calm Calm -- 30.06 in1017.9 mb 0.00 in0.0 mm 0.00 in0.0 mm 0.00 in0.0 mm
05:05 AM 31.9°F-0.1°C 34.1°F1.2°C 83% Calm Calm -- 30.06 in1017.9 mb 0.00 in0.0 mm 0.00 in0.0 mm 0.00 in0.0 mm
05:08 AM 31.8°F-0.1°C 33.5°F0.8°C 81% Calm Calm -- 30.06 in1017.9 mb 0.00 in0.0 mm 0.00 in0.0 mm 0.00 in0.0 mm
05:11 AM 31.8°F-0.1°C 33.8°F1.0°C 83% Calm Calm -- 30.06 in1017.9 mb 0.00 in0.0 mm 0.00 in0.0 mm 0.00 in0.0 mm
05:14 AM 31.8°F-0.1°C 33.9°F1.1°C 82% Calm Calm -- 30.06 in1017.9 mb 0.00 in0.0 mm 0.00 in0.0 mm 0.00 in0.0 mm
05:17 AM 31.7°F-0.2°C 34.0°F1.1°C 83% Calm Calm -- 30.06 in1017.9 mb 0.00 in0.0 mm 0.00 in0.0 mm 0.00 in0.0 mm
05:20 AM 31.8°F-0.1°C 34.1°F1.2°C 83% Calm Calm -- 30.06 in1017.9 mb 0.00 in0.0 mm 0.00 in0.0 mm 0.00 in0.0 mm
05:23 AM 31.8°F-0.1°C 34.1°F1.2°C 83% Calm Calm -- 30.06 in1017.9 mb 0.00 in0.0 mm 0.00 in0.0 mm 0.00 in0.0 mm
05:26 AM 31.7°F-0.2°C 33.8°F1.0°C 83% Calm Calm -- 30.06 in1017.9 mb 0.00 in0.0 mm 0.00 in0.0 mm 0.00 in0.0 mm
05:29 AM 31.8°F-0.1°C 34.0°F1.1°C 83% Calm Calm -- 30.06 in1017.9 mb 0.00 in0.0 mm 0.00 in0.0 mm 0.00 in0.0 mm
05:32 AM 31.8°F-0.1°C 34.0°F1.1°C 83% Calm Calm -- 30.06 in1017.9 mb 0.00 in0.0 mm 0.00 in0.0 mm 0.00 in0.0 mm
05:35 AM 31.9°F-0.1°C 33.9°F1.1°C 83% Calm Calm -- 30.06 in1017.9 mb 0.00 in0.0 mm 0.00 in0.0 mm 0.00 in0.0 mm
05:38 AM 31.8°F-0.1°C 34.1°F1.2°C 83% Calm Calm -- 30.06 in1017.9 mb 0.00 in0.0 mm 0.00 in0.0 mm 0.00 in0.0 mm
05:41 AM 31.9°F-0.1°C 34.2°F1.2°C 83% Calm Calm -- 30.06 in1017.9 mb 0.00 in0.0 mm 0.00 in0.0 mm 0.00 in0.0 mm
05:44 AM 31.8°F-0.1°C 34.2°F1.2°C 84% Calm Calm -- 30.06 in1017.9 mb 0.00 in0.0 mm 0.00 in0.0 mm 0.00 in0.0 mm
05:47 AM 31.8°F-0.1°C 34.2°F1.2°C 83% Calm Calm -- 30.06 in1017.9 mb 0.00 in0.0 mm 0.00 in0.0 mm 0.00 in0.0 mm
05:50 AM 31.9°F-0.1°C 33.9°F1.1°C 84% Calm Calm -- 30.06 in1017.9 mb 0.00 in0.0 mm 0.00 in0.0 mm 0.00 in0.0 mm
05:53 AM 31.9°F-0.1°C 34.1°F1.2°C 84% Calm Calm -- 30.06 in1017.9 mb 0.00 in0.0 mm 0.00 in0.0 mm 0.00 in0.0 mm
05:56 AM 31.8°F-0.1°C 34.1°F1.2°C 84% Calm Calm -- 30.06 in1017.9 mb 0.00 in0.0 mm 0.00 in0.0 mm 0.00 in0.0 mm
05:59 AM 31.8°F-0.1°C 34.2°F1.2°C 85% Calm Calm -- 30.06 in1017.9 mb 0.00 in0.0 mm 0.00 in0.0 mm 0.00 in0.0 mm
06:02 AM 31.7°F-0.2°C 34.1°F1.2°C 84% Calm Calm -- 30.06 in1017.9 mb 0.00 in0.0 mm 0.00 in0.0 mm 0.00 in0.0 mm
06:05 AM 31.7°F-0.2°C 34.3°F1.3°C 85% Calm Calm -- 30.06 in1017.9 mb 0.00 in0.0 mm 0.00 in0.0 mm 0.00 in0.0 mm
06:08 AM 31.8°F-0.1°C 34.2°F1.2°C 84% Calm Calm -- 30.06 in1017.9 mb 0.00 in0.0 mm 0.00 in0.0 mm 0.00 in0.0 mm
06:11 AM 31.8°F-0.1°C 34.2°F1.2°C 84% Calm Calm -- 30.06 in1017.9 mb 0.00 in0.0 mm 0.00 in0.0 mm 0.00 in0.0 mm
06:14 AM 31.7°F-0.2°C 34.2°F1.2°C 84% Calm Calm -- 30.06 in1017.9 mb 0.00 in0.0 mm 0.00 in0.0 mm 0.00 in0.0 mm
06:17 AM 31.7°F-0.2°C 34.1°F1.2°C 84% Calm Calm -- 30.06 in1017.9 mb 0.00 in0.0 mm 0.00 in0.0 mm 0.00 in0.0 mm
06:23 AM 31.7°F-0.2°C 34.4°F1.3°C 84% Calm Calm -- 30.06 in1017.9 mb 0.00 in0.0 mm 0.00 in0.0 mm 0.00 in0.0 mm
06:26 AM 31.7°F-0.2°C 34.1°F1.2°C 84% Calm Calm -- 30.06 in1017.9 mb 0.00 in0.0 mm 0.00 in0.0 mm 0.00 in0.0 mm
06:29 AM 31.7°F-0.2°C 34.3°F1.3°C 85% Calm Calm -- 30.06 in1017.9 mb 0.00 in0.0 mm 0.00 in0.0 mm 0.00 in0.0 mm
06:32 AM 31.7°F-0.2°C 34.3°F1.3°C 84% Calm Calm -- 30.06 in1017.9 mb 0.00 in0.0 mm 0.00 in0.0 mm 0.00 in0.0 mm
06:35 AM 31.6°F-0.2°C 34.4°F1.3°C 85% Calm Calm -- 30.06 in1017.9 mb 0.00 in0.0 mm 0.00 in0.0 mm 0.00 in0.0 mm
06:38 AM 31.7°F-0.2°C 34.3°F1.3°C 85% Calm Calm -- 30.06 in1017.9 mb 0.00 in0.0 mm 0.00 in0.0 mm 0.00 in0.0 mm
06:41 AM 31.6°F-0.2°C 34.5°F1.4°C 86% Calm Calm -- 30.06 in1017.9 mb 0.00 in0.0 mm 0.00 in0.0 mm 0.00 in0.0 mm
06:44 AM 31.6°F-0.2°C 34.4°F1.3°C 85% Calm Calm -- 30.06 in1017.9 mb 0.00 in0.0 mm 0.00 in0.0 mm 0.00 in0.0 mm
06:47 AM 31.6°F-0.2°C 34.4°F1.3°C 85% Calm Calm -- 30.06 in1017.9 mb 0.00 in0.0 mm 0.00 in0.0 mm 0.00 in0.0 mm
06:50 AM 31.6°F-0.2°C 34.4°F1.3°C 85% Calm Calm -- 30.06 in1017.9 mb 0.00 in0.0 mm 0.00 in0.0 mm 0.00 in0.0 mm
06:56 AM 31.7°F-0.2°C 34.4°F1.3°C 85% Calm Calm -- 30.06 in1017.9 mb 0.00 in0.0 mm 0.00 in0.0 mm 0.00 in0.0 mm
06:59 AM 31.6°F-0.2°C 34.3°F1.3°C 85% Calm Calm -- 30.06 in1017.9 mb 0.00 in0.0 mm 0.00 in0.0 mm 0.00 in0.0 mm
07:02 AM 31.6°F-0.2°C 34.0°F1.1°C 85% Calm Calm -- 30.06 in1017.9 mb 0.00 in0.0 mm 0.00 in0.0 mm 0.00 in0.0 mm
07:05 AM 31.7°F-0.2°C 34.3°F1.3°C 86% Calm Calm -- 30.06 in1017.9 mb 0.00 in0.0 mm 0.00 in0.0 mm 0.00 in0.0 mm
07:08 AM 31.6°F-0.2°C 34.4°F1.3°C 86% Calm Calm -- 30.06 in1017.9 mb 0.00 in0.0 mm 0.00 in0.0 mm 0.00 in0.0 mm
07:11 AM 31.7°F-0.2°C 34.3°F1.3°C 85% Calm Calm -- 30.06 in1017.9 mb 0.00 in0.0 mm 0.00 in0.0 mm 0.00 in0.0 mm
07:14 AM 31.7°F-0.2°C 34.3°F1.3°C 85% Calm Calm -- 30.06 in1017.9 mb 0.00 in0.0 mm 0.00 in0.0 mm 0.00 in0.0 mm
07:17 AM 31.7°F-0.2°C 34.2°F1.2°C 85% Calm Calm -- 30.06 in1017.9 mb 0.00 in0.0 mm 0.00 in0.0 mm 0.00 in0.0 mm
07:20 AM 31.6°F-0.2°C 34.4°F1.3°C 86% Calm Calm -- 30.06 in1017.9 mb 0.00 in0.0 mm 0.00 in0.0 mm 0.00 in0.0 mm
07:23 AM 31.7°F-0.2°C 34.3°F1.3°C 86% 0.8 mph SE1.3 kmh SE 0.8 mph1.3 kmh 30.06 in1017.9 mb 0.00 in0.0 mm 0.00 in0.0 mm 0.00 in0.0 mm
07:26 AM 31.6°F-0.2°C 34.4°F1.3°C 86% Calm Calm -- 30.06 in1017.9 mb 0.00 in0.0 mm 0.00 in0.0 mm 0.00 in0.0 mm
07:29 AM 31.6°F-0.2°C 34.2°F1.2°C 86% Calm Calm -- 30.06 in1017.9 mb 0.00 in0.0 mm 0.00 in0.0 mm 0.00 in0.0 mm
07:32 AM 31.7°F-0.2°C 34.2°F1.2°C 85% 0.8 mph NNW1.3 kmh NNW 0.8 mph1.3 kmh 30.06 in1017.9 mb 0.00 in0.0 mm 0.00 in0.0 mm 0.00 in0.0 mm
07:35 AM 31.7°F-0.2°C 34.2°F1.2°C 86% 2.8 mph SE4.5 kmh SE 2.8 mph4.5 kmh 30.06 in1017.9 mb 0.00 in0.0 mm 0.00 in0.0 mm 0.00 in0.0 mm
07:38 AM 31.7°F-0.2°C 34.0°F1.1°C 85% 0.8 mph S1.3 kmh S 0.8 mph1.3 kmh 30.06 in1017.9 mb 0.00 in0.0 mm 0.00 in0.0 mm 0.00 in0.0 mm
07:41 AM 31.6°F-0.2°C 34.1°F1.2°C 85% Calm Calm -- 30.06 in1017.9 mb 0.00 in0.0 mm 0.00 in0.0 mm 0.00 in0.0 mm
07:44 AM 31.7°F-0.2°C 34.1°F1.2°C 85% 2.4 mph NNW3.9 kmh NNW 2.4 mph3.9 kmh 30.06 in1017.9 mb 0.00 in0.0 mm 0.00 in0.0 mm 0.00 in0.0 mm
07:47 AM 31.8°F-0.1°C 33.9°F1.1°C 85% 2.0 mph NNW3.2 kmh NNW 2.0 mph3.2 kmh 30.06 in1017.9 mb 0.00 in0.0 mm 0.00 in0.0 mm 0.00 in0.0 mm
07:50 AM 31.9°F-0.1°C 33.7°F0.9°C 84% Calm Calm -- 30.06 in1017.9 mb 0.00 in0.0 mm 0.00 in0.0 mm 0.00 in0.0 mm
07:53 AM 31.9°F-0.1°C 33.8°F1.0°C 84% 0.4 mph NNW0.6 kmh NNW 0.4 mph0.6 kmh 30.06 in1017.9 mb 0.00 in0.0 mm 0.00 in0.0 mm 0.00 in0.0 mm
07:56 AM 31.8°F-0.1°C 34.0°F1.1°C 84% Calm Calm -- 30.06 in1017.9 mb 0.00 in0.0 mm 0.00 in0.0 mm 0.00 in0.0 mm
07:59 AM 31.7°F-0.2°C 34.1°F1.2°C 85% Calm Calm -- 30.06 in1017.9 mb 0.00 in0.0 mm 0.00 in0.0 mm 0.00 in0.0 mm
08:02 AM 31.7°F-0.2°C 34.3°F1.3°C 85% Calm Calm -- 30.07 in1018.3 mb 0.00 in0.0 mm 0.00 in0.0 mm 0.00 in0.0 mm
08:05 AM 31.8°F-0.1°C 33.9°F1.1°C 84% Calm Calm -- 30.07 in1018.3 mb 0.00 in0.0 mm 0.00 in0.0 mm 0.00 in0.0 mm
08:08 AM 31.8°F-0.1°C 33.8°F1.0°C 84% 2.0 mph SSE3.2 kmh SSE 2.0 mph3.2 kmh 30.07 in1018.3 mb 0.00 in0.0 mm 0.00 in0.0 mm 0.00 in0.0 mm
08:11 AM 31.8°F-0.1°C 33.7°F0.9°C 84% 1.6 mph SSE2.6 kmh SSE 1.6 mph2.6 kmh 30.07 in1018.3 mb 0.00 in0.0 mm 0.00 in0.0 mm 0.00 in0.0 mm
08:17 AM 31.8°F-0.1°C 33.9°F1.1°C 83% Calm Calm -- 30.07 in1018.3 mb 0.00 in0.0 mm 0.00 in0.0 mm 0.00 in0.0 mm
08:20 AM 31.8°F-0.1°C 33.8°F1.0°C 84% Calm Calm -- 30.07 in1018.3 mb 0.00 in0.0 mm 0.00 in0.0 mm 0.00 in0.0 mm
08:23 AM 31.8°F-0.1°C 33.8°F1.0°C 83% Calm Calm -- 30.07 in1018.3 mb 0.00 in0.0 mm 0.00 in0.0 mm 0.00 in0.0 mm
08:26 AM 31.8°F-0.1°C 33.4°F0.8°C 83% Calm Calm -- 30.07 in1018.3 mb 0.00 in0.0 mm 0.00 in0.0 mm 0.00 in0.0 mm
08:29 AM 31.9°F-0.1°C 33.7°F0.9°C 83% Calm Calm -- 30.07 in1018.3 mb 0.00 in0.0 mm 0.00 in0.0 mm 0.00 in0.0 mm
08:32 AM 31.9°F-0.1°C 33.7°F0.9°C 83% Calm Calm -- 30.07 in1018.3 mb 0.00 in0.0 mm 0.00 in0.0 mm 0.00 in0.0 mm
08:35 AM 32.0°F0.0°C 33.9°F1.1°C 84% 2.0 mph S3.2 kmh S 2.0 mph3.2 kmh 30.07 in1018.3 mb 0.00 in0.0 mm 0.00 in0.0 mm 0.00 in0.0 mm
08:38 AM 31.9°F-0.1°C 33.7°F0.9°C 83% 0.4 mph S0.6 kmh S 0.4 mph0.6 kmh 30.07 in1018.3 mb 0.00 in0.0 mm 0.00 in0.0 mm 0.00 in0.0 mm
08:41 AM 31.9°F-0.1°C 33.6°F0.9°C 83% 0.4 mph SSE0.6 kmh SSE 0.4 mph0.6 kmh 30.07 in1018.3 mb 0.00 in0.0 mm 0.00 in0.0 mm 0.00 in0.0 mm
08:44 AM 31.9°F-0.1°C 33.9°F1.1°C 84% 1.2 mph SSE1.9 kmh SSE 1.2 mph1.9 kmh 30.08 in1018.6 mb 0.00 in0.0 mm 0.00 in0.0 mm 0.00 in0.0 mm
08:47 AM 32.0°F0.0°C 33.9°F1.1°C 84% 2.0 mph SE3.2 kmh SE 2.0 mph3.2 kmh 30.07 in1018.3 mb 0.00 in0.0 mm 0.00 in0.0 mm 0.00 in0.0 mm
08:50 AM 31.9°F-0.1°C 34.2°F1.2°C 85% 1.2 mph SE1.9 kmh SE 1.2 mph1.9 kmh 30.07 in1018.3 mb 0.00 in0.0 mm 0.00 in0.0 mm 0.00 in0.0 mm
08:53 AM 31.9°F-0.1°C 34.0°F1.1°C 85% Calm Calm -- 30.07 in1018.3 mb 0.00 in0.0 mm 0.00 in0.0 mm 0.00 in0.0 mm
08:56 AM 32.0°F0.0°C 34.0°F1.1°C 84% 0.4 mph SSE0.6 kmh SSE 0.4 mph0.6 kmh 30.07 in1018.3 mb 0.00 in0.0 mm 0.00 in0.0 mm 0.00 in0.0 mm
08:59 AM 32.0°F0.0°C 34.0°F1.1°C 84% Calm Calm -- 30.07 in1018.3 mb 0.00 in0.0 mm 0.00 in0.0 mm 0.00 in0.0 mm
09:02 AM 32.0°F0.0°C 34.1°F1.2°C 84% Calm Calm -- 30.08 in1018.6 mb 0.00 in0.0 mm 0.00 in0.0 mm 0.00 in0.0 mm
09:05 AM 32.0°F0.0°C 33.9°F1.1°C 84% 2.0 mph ESE3.2 kmh ESE 2.0 mph3.2 kmh 30.08 in1018.6 mb 0.00 in0.0 mm 0.00 in0.0 mm 0.00 in0.0 mm
09:08 AM 32.0°F0.0°C 34.1°F1.2°C 85% 4.4 mph SE7.1 kmh SE 4.5 mph7.2 kmh 30.08 in1018.6 mb 0.00 in0.0 mm 0.00 in0.0 mm 0.00 in0.0 mm
09:11 AM 32.0°F0.0°C 34.0°F1.1°C 85% 0.4 mph SE0.6 kmh SE 0.4 mph0.6 kmh 30.08 in1018.6 mb 0.00 in0.0 mm 0.00 in0.0 mm 0.00 in0.0 mm
09:14 AM 32.0°F0.0°C 34.0°F1.1°C 85% 4.0 mph ESE6.4 kmh ESE 4.0 mph6.4 kmh 30.08 in1018.6 mb 0.00 in0.0 mm 0.00 in0.0 mm 0.00 in0.0 mm
09:17 AM 32.0°F0.0°C 33.6°F0.9°C 84% 0.8 mph SE1.3 kmh SE 0.8 mph1.3 kmh 30.08 in1018.6 mb 0.00 in0.0 mm 0.00 in0.0 mm 0.00 in0.0 mm
09:20 AM 32.0°F0.0°C 33.9°F1.1°C 85% 0.8 mph S1.3 kmh S 0.8 mph1.3 kmh 30.08 in1018.6 mb 0.00 in0.0 mm 0.00 in0.0 mm 0.00 in0.0 mm
09:23 AM 32.1°F0.1°C 34.0°F1.1°C 85% Calm Calm -- 30.08 in1018.6 mb 0.00 in0.0 mm 0.00 in0.0 mm 0.00 in0.0 mm
09:26 AM 32.0°F0.0°C 34.1°F1.2°C 85% Calm Calm -- 30.08 in1018.6 mb 0.00 in0.0 mm 0.00 in0.0 mm 0.00 in0.0 mm
09:29 AM 32.1°F0.1°C 34.4°F1.3°C 85% Calm Calm -- 30.08 in1018.6 mb 0.00 in0.0 mm 0.00 in0.0 mm 0.00 in0.0 mm
09:32 AM 32.2°F0.1°C 34.1°F1.2°C 85% 1.6 mph S2.6 kmh S 1.6 mph2.6 kmh 30.08 in1018.6 mb 0.00 in0.0 mm 0.00 in0.0 mm 0.00 in0.0 mm
09:35 AM 32.1°F0.1°C 34.1°F1.2°C 85% 0.8 mph SSE1.3 kmh SSE 0.8 mph1.3 kmh 30.08 in1018.6 mb 0.00 in0.0 mm 0.00 in0.0 mm 0.00 in0.0 mm
09:38 AM 32.1°F0.1°C 34.2°F1.2°C 85% 2.0 mph S3.2 kmh S 2.0 mph3.2 kmh 30.08 in1018.6 mb 0.00 in0.0 mm 0.00 in0.0 mm 0.00 in0.0 mm
09:41 AM 32.2°F0.1°C 34.3°F1.3°C 85% 0.4 mph S0.6 kmh S 0.4 mph0.6 kmh 30.08 in1018.6 mb 0.00 in0.0 mm 0.00 in0.0 mm 0.00 in0.0 mm
09:44 AM 32.1°F0.1°C 34.3°F1.3°C 85% 1.2 mph SSE1.9 kmh SSE 1.2 mph1.9 kmh 30.08 in1018.6 mb 0.00 in0.0 mm 0.00 in0.0 mm 0.00 in0.0 mm
09:47 AM 32.2°F0.1°C 34.3°F1.3°C 85% Calm Calm -- 30.08 in1018.6 mb 0.00 in0.0 mm 0.00 in0.0 mm 0.00 in0.0 mm
09:50 AM 32.1°F0.1°C 34.2°F1.2°C 85% 4.4 mph SE7.1 kmh SE 4.5 mph7.2 kmh 30.08 in1018.6 mb 0.00 in0.0 mm 0.00 in0.0 mm 0.00 in0.0 mm
09:53 AM 32.1°F0.1°C 34.4°F1.3°C 86% Calm Calm -- 30.08 in1018.6 mb 0.00 in0.0 mm 0.00 in0.0 mm 0.00 in0.0 mm
09:56 AM 32.1°F0.1°C 34.0°F1.1°C 85% 1.6 mph SE2.6 kmh SE 1.6 mph2.6 kmh 30.08 in1018.6 mb 0.00 in0.0 mm 0.00 in0.0 mm 0.00 in0.0 mm
09:59 AM 32.0°F0.0°C 33.9°F1.1°C 86% 4.9 mph SE7.9 kmh SE 4.9 mph7.9 kmh 30.08 in1018.6 mb 0.00 in0.0 mm 0.00 in0.0 mm 0.00 in0.0 mm
10:02 AM 31.9°F-0.1°C 33.8°F1.0°C 86% 6.0 mph SE9.7 kmh SE 6.0 mph9.7 kmh 30.08 in1018.6 mb 0.00 in0.0 mm 0.00 in0.0 mm 0.00 in0.0 mm
10:05 AM 32.0°F0.0°C 34.2°F1.2°C 86% 2.0 mph SSE3.2 kmh SSE 2.0 mph3.2 kmh 30.08 in1018.6 mb 0.00 in0.0 mm 0.00 in0.0 mm 0.00 in0.0 mm
10:08 AM 32.1°F0.1°C 33.8°F1.0°C 85% 4.0 mph NNW6.4 kmh NNW 4.1 mph6.6 kmh 30.08 in1018.6 mb 0.00 in0.0 mm 0.00 in0.0 mm 0.00 in0.0 mm
10:11 AM 32.0°F0.0°C 33.7°F0.9°C 85% 6.4 mph SE10.3 kmh SE 6.4 mph10.3 kmh 30.08 in1018.6 mb 0.00 in0.0 mm 0.00 in0.0 mm 0.00 in0.0 mm
10:14 AM 32.1°F0.1°C 33.7°F0.9°C 85% 0.8 mph ESE1.3 kmh ESE 0.8 mph1.3 kmh 30.08 in1018.6 mb 0.00 in0.0 mm 0.00 in0.0 mm 0.00 in0.0 mm
10:17 AM 32.3°F0.2°C 33.7°F0.9°C 84% 2.0 mph SE3.2 kmh SE 2.0 mph3.2 kmh 30.08 in1018.6 mb 0.00 in0.0 mm 0.00 in0.0 mm 0.00 in0.0 mm
10:20 AM 32.5°F0.3°C 33.9°F1.1°C 85% 2.0 mph E3.2 kmh E 2.0 mph3.2 kmh 30.08 in1018.6 mb 0.00 in0.0 mm 0.00 in0.0 mm 0.00 in0.0 mm
10:23 AM 32.6°F0.3°C 33.9°F1.1°C 84% Calm Calm -- 30.08 in1018.6 mb 0.00 in0.0 mm 0.00 in0.0 mm 0.00 in0.0 mm
10:26 AM 32.9°F0.5°C 33.8°F1.0°C 83% 0.4 mph ESE0.6 kmh ESE 0.4 mph0.6 kmh 30.08 in1018.6 mb 0.00 in0.0 mm 0.00 in0.0 mm 0.00 in0.0 mm
10:29 AM 33.4°F0.8°C 33.9°F1.1°C 84% Calm Calm -- 30.08 in1018.6 mb 0.00 in0.0 mm 0.00 in0.0 mm 0.00 in0.0 mm
10:32 AM 33.5°F0.8°C 33.8°F1.0°C 83% Calm Calm -- 30.08 in1018.6 mb 0.00 in0.0 mm 0.00 in0.0 mm 0.00 in0.0 mm
10:38 AM 34.0°F1.1°C 34.6°F1.4°C 83% Calm Calm -- 30.08 in1018.6 mb 0.00 in0.0 mm 0.00 in0.0 mm 0.00 in0.0 mm
10:41 AM 33.9°F1.1°C 34.1°F1.2°C 82% Calm Calm -- 30.08 in1018.6 mb 0.00 in0.0 mm 0.00 in0.0 mm 0.00 in0.0 mm
10:44 AM 34.3°F1.3°C 34.4°F1.3°C 82% Calm Calm -- 30.08 in1018.6 mb 0.00 in0.0 mm 0.00 in0.0 mm 0.00 in0.0 mm
10:47 AM 34.4°F1.3°C 34.3°F1.3°C 82% 2.4 mph NNW3.9 kmh NNW 2.4 mph3.9 kmh 30.08 in1018.6 mb 0.00 in0.0 mm 0.00 in0.0 mm 0.00 in0.0 mm
10:50 AM 34.0°F1.1°C 34.1°F1.2°C 81% Calm Calm -- 30.08 in1018.6 mb 0.00 in0.0 mm 0.00 in0.0 mm 0.00 in0.0 mm
10:53 AM 33.8°F1.0°C 34.1°F1.2°C 80% Calm Calm -- 30.08 in1018.6 mb 0.00 in0.0 mm 0.00 in0.0 mm 0.00 in0.0 mm
10:56 AM 34.0°F1.1°C 34.0°F1.1°C 80% 1.2 mph SW1.9 kmh SW 1.2 mph1.9 kmh 30.08 in1018.6 mb 0.00 in0.0 mm 0.00 in0.0 mm 0.00 in0.0 mm
10:59 AM 34.1°F1.2°C 33.9°F1.1°C 80% Calm Calm -- 30.08 in1018.6 mb 0.00 in0.0 mm 0.00 in0.0 mm 0.00 in0.0 mm
11:02 AM 34.1°F1.2°C 34.1°F1.2°C 80% Calm Calm -- 30.08 in1018.6 mb 0.00 in0.0 mm 0.00 in0.0 mm 0.00 in0.0 mm
11:05 AM 34.3°F1.3°C 33.7°F0.9°C 79% 0.8 mph SW1.3 kmh SW 0.8 mph1.3 kmh 30.08 in1018.6 mb 0.00 in0.0 mm 0.00 in0.0 mm 0.00 in0.0 mm
11:08 AM 34.0°F1.1°C 34.2°F1.2°C 80% Calm Calm -- 30.08 in1018.6 mb 0.00 in0.0 mm 0.00 in0.0 mm 0.00 in0.0 mm
11:11 AM 34.1°F1.2°C 33.7°F0.9°C 80% Calm Calm -- 30.08 in1018.6 mb 0.00 in0.0 mm 0.00 in0.0 mm 0.00 in0.0 mm
11:14 AM 34.1°F1.2°C 33.9°F1.1°C 80% 0.8 mph NNW1.3 kmh NNW 0.8 mph1.3 kmh 30.08 in1018.6 mb 0.00 in0.0 mm 0.00 in0.0 mm 0.00 in0.0 mm
11:17 AM 34.6°F1.4°C 33.9°F1.1°C 79% Calm Calm -- 30.08 in1018.6 mb 0.00 in0.0 mm 0.00 in0.0 mm 0.00 in0.0 mm
11:20 AM 34.5°F1.4°C 34.1°F1.2°C 80% Calm Calm -- 30.08 in1018.6 mb 0.00 in0.0 mm 0.00 in0.0 mm 0.00 in0.0 mm
11:23 AM 34.0°F1.1°C 34.2°F1.2°C 79% Calm Calm -- 30.08 in1018.6 mb 0.00 in0.0 mm 0.00 in0.0 mm 0.00 in0.0 mm
11:26 AM 34.5°F1.4°C 34.2°F1.2°C 79% Calm Calm -- 30.08 in1018.6 mb 0.00 in0.0 mm 0.00 in0.0 mm 0.00 in0.0 mm
11:29 AM 35.0°F1.7°C 34.3°F1.3°C 79% Calm Calm -- 30.08 in1018.6 mb 0.00 in0.0 mm 0.00 in0.0 mm 0.00 in0.0 mm
11:32 AM 35.2°F1.8°C 34.6°F1.4°C 80% Calm Calm -- 30.08 in1018.6 mb 0.00 in0.0 mm 0.00 in0.0 mm 0.00 in0.0 mm
11:35 AM 34.8°F1.6°C 34.4°F1.3°C 79% Calm Calm -- 30.07 in1018.3 mb 0.00 in0.0 mm 0.00 in0.0 mm 0.00 in0.0 mm
11:38 AM 34.9°F1.6°C 34.1°F1.2°C 78% Calm Calm -- 30.07 in1018.3 mb 0.00 in0.0 mm 0.00 in0.0 mm 0.00 in0.0 mm
11:41 AM 34.6°F1.4°C 34.0°F1.1°C 78% 2.0 mph SSE3.2 kmh SSE 2.0 mph3.2 kmh 30.07 in1018.3 mb 0.00 in0.0 mm 0.00 in0.0 mm 0.00 in0.0 mm
11:44 AM 34.7°F1.5°C 33.9°F1.1°C 78% 0.4 mph SSE0.6 kmh SSE 0.4 mph0.6 kmh 30.07 in1018.3 mb 0.00 in0.0 mm 0.00 in0.0 mm 0.00 in0.0 mm
11:47 AM 34.9°F1.6°C 34.0°F1.1°C 78% Calm Calm -- 30.07 in1018.3 mb 0.00 in0.0 mm 0.00 in0.0 mm 0.00 in0.0 mm
11:50 AM 34.9°F1.6°C 33.9°F1.1°C 78% Calm Calm -- 30.07 in1018.3 mb 0.00 in0.0 mm 0.00 in0.0 mm 0.00 in0.0 mm
11:53 AM 34.8°F1.6°C 33.9°F1.1°C 78% Calm Calm -- 30.07 in1018.3 mb 0.00 in0.0 mm 0.00 in0.0 mm 0.00 in0.0 mm
11:56 AM 35.3°F1.8°C 34.1°F1.2°C 78% Calm Calm -- 30.07 in1018.3 mb 0.00 in0.0 mm 0.00 in0.0 mm 0.00 in0.0 mm
11:59 AM 35.2°F1.8°C 34.2°F1.2°C 78% 0.4 mph S0.6 kmh S 0.4 mph0.6 kmh 30.07 in1018.3 mb 0.00 in0.0 mm 0.00 in0.0 mm 0.00 in0.0 mm
12:02 PM 35.2°F1.8°C 33.7°F0.9°C 77% Calm Calm -- 30.07 in1018.3 mb 0.00 in0.0 mm 0.00 in0.0 mm 0.00 in0.0 mm
12:08 PM 35.9°F2.2°C 34.4°F1.3°C 78% Calm Calm -- 30.07 in1018.3 mb 0.00 in0.0 mm 0.00 in0.0 mm 0.00 in0.0 mm
12:11 PM 35.3°F1.8°C 34.1°F1.2°C 77% Calm Calm -- 30.06 in1017.9 mb 0.00 in0.0 mm 0.00 in0.0 mm 0.00 in0.0 mm
12:14 PM 35.2°F1.8°C 34.2°F1.2°C 77% 0.4 mph SSE0.6 kmh SSE 0.4 mph0.6 kmh 30.06 in1017.9 mb 0.00 in0.0 mm 0.00 in0.0 mm 0.00 in0.0 mm
12:17 PM 34.9°F1.6°C 33.7°F0.9°C 76% Calm Calm -- 30.07 in1018.3 mb 0.00 in0.0 mm 0.00 in0.0 mm 0.00 in0.0 mm
12:20 PM 35.2°F1.8°C 34.0°F1.1°C 77% Calm Calm -- 30.06 in1017.9 mb 0.00 in0.0 mm 0.00 in0.0 mm 0.00 in0.0 mm
12:23 PM 35.3°F1.8°C 34.2°F1.2°C 77% Calm Calm -- 30.06 in1017.9 mb 0.00 in0.0 mm 0.00 in0.0 mm 0.00 in0.0 mm
12:26 PM 35.4°F1.9°C 34.1°F1.2°C 77% Calm Calm -- 30.06 in1017.9 mb 0.00 in0.0 mm 0.00 in0.0 mm 0.00 in0.0 mm
12:29 PM 35.4°F1.9°C 34.3°F1.3°C 77% 0.8 mph NNW1.3 kmh NNW 0.8 mph1.3 kmh 30.06 in1017.9 mb 0.00 in0.0 mm 0.00 in0.0 mm 0.00 in0.0 mm
12:32 PM 35.2°F1.8°C 34.2°F1.2°C 77% Calm Calm -- 30.06 in1017.9 mb 0.00 in0.0 mm 0.00 in0.0 mm 0.00 in0.0 mm
12:35 PM 35.2°F1.8°C 34.3°F1.3°C 78% Calm Calm -- 30.06 in1017.9 mb 0.00 in0.0 mm 0.00 in0.0 mm 0.00 in0.0 mm
12:38 PM 34.9°F1.6°C 34.2°F1.2°C 77% 1.2 mph SE1.9 kmh SE 1.2 mph1.9 kmh 30.06 in1017.9 mb 0.00 in0.0 mm 0.00 in0.0 mm 0.00 in0.0 mm
12:41 PM 34.8°F1.6°C 34.5°F1.4°C 79% 1.6 mph SE2.6 kmh SE 1.6 mph2.6 kmh 30.06 in1017.9 mb 0.00 in0.0 mm 0.00 in0.0 mm 0.00 in0.0 mm
12:44 PM 35.0°F1.7°C 34.5°F1.4°C 79% 0.8 mph SE1.3 kmh SE 0.8 mph1.3 kmh 30.06 in1017.9 mb 0.00 in0.0 mm 0.00 in0.0 mm 0.00 in0.0 mm
12:47 PM 35.4°F1.9°C 34.3°F1.3°C 78% Calm Calm -- 30.06 in1017.9 mb 0.00 in0.0 mm 0.00 in0.0 mm 0.00 in0.0 mm
12:53 PM 35.5°F1.9°C 34.3°F1.3°C 78% Calm Calm -- 30.06 in1017.9 mb 0.00 in0.0 mm 0.00 in0.0 mm 0.00 in0.0 mm
12:56 PM 35.6°F2.0°C 34.8°F1.6°C 78% Calm Calm -- 30.06 in1017.9 mb 0.00 in0.0 mm 0.00 in0.0 mm 0.00 in0.0 mm
12:59 PM 35.8°F2.1°C 34.9°F1.6°C 78% Calm Calm -- 30.06 in1017.9 mb 0.00 in0.0 mm 0.00 in0.0 mm 0.00 in0.0 mm
01:02 PM 35.9°F2.2°C 34.5°F1.4°C 77% Calm Calm -- 30.06 in1017.9 mb 0.00 in0.0 mm 0.00 in0.0 mm 0.00 in0.0 mm
01:05 PM 35.8°F2.1°C 34.4°F1.3°C 77% Calm Calm -- 30.06 in1017.9 mb 0.00 in0.0 mm 0.00 in0.0 mm 0.00 in0.0 mm
01:08 PM 35.3°F1.8°C 34.5°F1.4°C 77% 1.6 mph SW2.6 kmh SW 1.6 mph2.6 kmh 30.06 in1017.9 mb 0.00 in0.0 mm 0.00 in0.0 mm 0.00 in0.0 mm
01:11 PM 35.8°F2.1°C 34.5°F1.4°C 77% Calm Calm -- 30.06 in1017.9 mb 0.00 in0.0 mm 0.00 in0.0 mm 0.00 in0.0 mm
01:14 PM 35.4°F1.9°C 34.5°F1.4°C 77% Calm Calm -- 30.06 in1017.9 mb 0.00 in0.0 mm 0.00 in0.0 mm 0.00 in0.0 mm
01:17 PM 35.7°F2.1°C 34.2°F1.2°C 77% Calm Calm -- 30.06 in1017.9 mb 0.00 in0.0 mm 0.00 in0.0 mm 0.00 in0.0 mm
01:23 PM 35.8°F2.1°C 34.2°F1.2°C 76% Calm Calm -- 30.05 in1017.6 mb 0.00 in0.0 mm 0.00 in0.0 mm 0.00 in0.0 mm
01:26 PM 35.5°F1.9°C 34.3°F1.3°C 76% 2.0 mph S3.2 kmh S 2.0 mph3.2 kmh 30.05 in1017.6 mb 0.00 in0.0 mm 0.00 in0.0 mm 0.00 in0.0 mm
01:29 PM 35.3°F1.8°C 34.2°F1.2°C 76% 1.2 mph S1.9 kmh S 1.2 mph1.9 kmh 30.05 in1017.6 mb 0.00 in0.0 mm 0.00 in0.0 mm 0.00 in0.0 mm
01:32 PM 35.5°F1.9°C 34.3°F1.3°C 77% Calm Calm -- 30.04 in1017.3 mb 0.00 in0.0 mm 0.00 in0.0 mm 0.00 in0.0 mm
01:35 PM 35.5°F1.9°C 34.6°F1.4°C 77% Calm Calm -- 30.04 in1017.3 mb 0.00 in0.0 mm 0.00 in0.0 mm 0.00 in0.0 mm
01:38 PM 35.4°F1.9°C 34.1°F1.2°C 76% Calm Calm -- 30.04 in1017.3 mb 0.00 in0.0 mm 0.00 in0.0 mm 0.00 in0.0 mm
01:41 PM 35.5°F1.9°C 34.3°F1.3°C 77% Calm Calm -- 30.04 in1017.3 mb 0.00 in0.0 mm 0.00 in0.0 mm 0.00 in0.0 mm
01:44 PM 36.1°F2.3°C 34.4°F1.3°C 77% Calm Calm -- 30.04 in1017.3 mb 0.00 in0.0 mm 0.00 in0.0 mm 0.00 in0.0 mm
01:47 PM 35.8°F2.1°C 34.8°F1.6°C 77% Calm Calm -- 30.04 in1017.3 mb 0.00 in0.0 mm 0.00 in0.0 mm 0.00 in0.0 mm
01:53 PM 36.1°F2.3°C 34.7°F1.5°C 76% Calm Calm -- 30.04 in1017.3 mb 0.00 in0.0 mm 0.00 in0.0 mm 0.00 in0.0 mm
01:56 PM 35.7°F2.1°C 34.6°F1.4°C 76% Calm Calm -- 30.04 in1017.3 mb 0.00 in0.0 mm 0.00 in0.0 mm 0.00 in0.0 mm
01:59 PM 35.9°F2.2°C 34.8°F1.6°C 76% Calm Calm -- 30.04 in1017.3 mb 0.00 in0.0 mm 0.00 in0.0 mm 0.00 in0.0 mm
02:02 PM 35.6°F2.0°C 34.9°F1.6°C 77% Calm Calm -- 30.04 in1017.3 mb 0.00 in0.0 mm 0.00 in0.0 mm 0.00 in0.0 mm
02:05 PM 36.3°F2.4°C 34.7°F1.5°C 77% Calm Calm -- 30.03 in1016.9 mb 0.00 in0.0 mm 0.00 in0.0 mm 0.00 in0.0 mm
02:08 PM 36.3°F2.4°C 34.8°F1.6°C 77% Calm Calm -- 30.03 in1016.9 mb 0.00 in0.0 mm 0.00 in0.0 mm 0.00 in0.0 mm
02:11 PM 36.3°F2.4°C 34.9°F1.6°C 77% Calm Calm -- 30.03 in1016.9 mb 0.00 in0.0 mm 0.00 in0.0 mm 0.00 in0.0 mm
02:14 PM 35.8°F2.1°C 35.1°F1.7°C 77% Calm Calm -- 30.03 in1016.9 mb 0.00 in0.0 mm 0.00 in0.0 mm 0.00 in0.0 mm
02:17 PM 36.2°F2.3°C 34.6°F1.4°C 76% Calm Calm -- 30.03 in1016.9 mb 0.00 in0.0 mm 0.00 in0.0 mm 0.00 in0.0 mm
02:20 PM 36.1°F2.3°C 35.1°F1.7°C 77% Calm Calm -- 30.03 in1016.9 mb 0.00 in0.0 mm 0.00 in0.0 mm 0.00 in0.0 mm
02:23 PM 36.4°F2.4°C 34.8°F1.6°C 77% Calm Calm -- 30.03 in1016.9 mb 0.00 in0.0 mm 0.00 in0.0 mm 0.00 in0.0 mm
02:26 PM 35.7°F2.1°C 34.4°F1.3°C 75% Calm Calm -- 30.03 in1016.9 mb 0.00 in0.0 mm 0.00 in0.0 mm 0.00 in0.0 mm
02:29 PM 35.5°F1.9°C 34.7°F1.5°C 76% Calm Calm -- 30.03 in1016.9 mb 0.00 in0.0 mm 0.00 in0.0 mm 0.00 in0.0 mm
02:32 PM 35.2°F1.8°C 34.7°F1.5°C 76% Calm Calm -- 30.03 in1016.9 mb 0.00 in0.0 mm 0.00 in0.0 mm 0.00 in0.0 mm
02:35 PM 34.8°F1.6°C 34.2°F1.2°C 76% 0.8 mph S1.3 kmh S 0.8 mph1.3 kmh 30.03 in1016.9 mb 0.00 in0.0 mm 0.00 in0.0 mm 0.00 in0.0 mm
02:38 PM 34.8°F1.6°C 34.3°F1.3°C 76% Calm Calm -- 30.03 in1016.9 mb 0.00 in0.0 mm 0.00 in0.0 mm 0.00 in0.0 mm
02:41 PM 34.8°F1.6°C 34.2°F1.2°C 76% Calm Calm -- 30.03 in1016.9 mb 0.00 in0.0 mm 0.00 in0.0 mm 0.00 in0.0 mm
02:44 PM 34.8°F1.6°C 34.3°F1.3°C 77% 1.6 mph SSE2.6 kmh SSE 1.6 mph2.6 kmh 30.02 in1016.6 mb 0.00 in0.0 mm 0.00 in0.0 mm 0.00 in0.0 mm
02:47 PM 34.8°F1.6°C 34.2°F1.2°C 76% Calm Calm -- 30.02 in1016.6 mb 0.00 in0.0 mm 0.00 in0.0 mm 0.00 in0.0 mm
02:50 PM 35.0°F1.7°C 34.1°F1.2°C 76% Calm Calm -- 30.03 in1016.9 mb 0.00 in0.0 mm 0.00 in0.0 mm 0.00 in0.0 mm
02:53 PM 35.4°F1.9°C 34.5°F1.4°C 77% Calm Calm -- 30.03 in1016.9 mb 0.00 in0.0 mm 0.00 in0.0 mm 0.00 in0.0 mm
02:56 PM 35.3°F1.8°C 34.9°F1.6°C 77% Calm Calm -- 30.03 in1016.9 mb 0.00 in0.0 mm 0.00 in0.0 mm 0.00 in0.0 mm
02:59 PM 35.2°F1.8°C 34.7°F1.5°C 77% Calm Calm -- 30.03 in1016.9 mb 0.00 in0.0 mm 0.00 in0.0 mm 0.00 in0.0 mm
03:02 PM 34.7°F1.5°C 34.6°F1.4°C 77% 1.2 mph SW1.9 kmh SW 1.2 mph1.9 kmh 30.03 in1016.9 mb 0.00 in0.0 mm 0.00 in0.0 mm 0.00 in0.0 mm
03:05 PM 34.8°F1.6°C 34.4°F1.3°C 77% 0.4 mph SW0.6 kmh SW 0.4 mph0.6 kmh 30.03 in1016.9 mb 0.00 in0.0 mm 0.00 in0.0 mm 0.00 in0.0 mm
03:08 PM 35.2°F1.8°C 34.6°F1.4°C 77% Calm Calm -- 30.03 in1016.9 mb 0.00 in0.0 mm 0.00 in0.0 mm 0.00 in0.0 mm
03:11 PM 34.9°F1.6°C 34.9°F1.6°C 78% Calm Calm -- 30.03 in1016.9 mb 0.00 in0.0 mm 0.00 in0.0 mm 0.00 in0.0 mm
03:14 PM 34.8°F1.6°C 34.6°F1.4°C 77% Calm Calm -- 30.03 in1016.9 mb 0.00 in0.0 mm 0.00 in0.0 mm 0.00 in0.0 mm
03:17 PM 34.9°F1.6°C 34.5°F1.4°C 77% Calm Calm -- 30.03 in1016.9 mb 0.00 in0.0 mm 0.00 in0.0 mm 0.00 in0.0 mm
03:20 PM 35.2°F1.8°C 35.1°F1.7°C 78% Calm Calm -- 30.03 in1016.9 mb 0.00 in0.0 mm 0.00 in0.0 mm 0.00 in0.0 mm
03:23 PM 34.9°F1.6°C 34.7°F1.5°C 78% Calm Calm -- 30.03 in1016.9 mb 0.00 in0.0 mm 0.00 in0.0 mm 0.00 in0.0 mm
03:26 PM 34.9°F1.6°C 34.7°F1.5°C 78% Calm Calm -- 30.03 in1016.9 mb 0.00 in0.0 mm 0.00 in0.0 mm 0.00 in0.0 mm
03:29 PM 34.9°F1.6°C 34.6°F1.4°C 77% Calm Calm -- 30.03 in1016.9 mb 0.00 in0.0 mm 0.00 in0.0 mm 0.00 in0.0 mm
03:32 PM 35.0°F1.7°C 34.6°F1.4°C 77% Calm Calm -- 30.03 in1016.9 mb 0.00 in0.0 mm 0.00 in0.0 mm 0.00 in0.0 mm
03:35 PM 34.8°F1.6°C 34.9°F1.6°C 77% Calm Calm -- 30.02 in1016.6 mb 0.00 in0.0 mm 0.00 in0.0 mm 0.00 in0.0 mm
03:38 PM 34.7°F1.5°C 35.0°F1.7°C 78% Calm Calm -- 30.02 in1016.6 mb 0.00 in0.0 mm 0.00 in0.0 mm 0.00 in0.0 mm
03:50 PM 34.8°F1.6°C 34.8°F1.6°C 78% Calm Calm -- 30.02 in1016.6 mb 0.00 in0.0 mm 0.00 in0.0 mm 0.00 in0.0 mm
03:53 PM 34.5°F1.4°C 34.8°F1.6°C 78% Calm Calm -- 30.02 in1016.6 mb 0.00 in0.0 mm 0.00 in0.0 mm 0.00 in0.0 mm
03:56 PM 34.5°F1.4°C 34.6°F1.4°C 78% Calm Calm -- 30.02 in1016.6 mb 0.00 in0.0 mm 0.00 in0.0 mm 0.00 in0.0 mm
03:59 PM 34.5°F1.4°C 34.6°F1.4°C 78% Calm Calm -- 30.02 in1016.6 mb 0.00 in0.0 mm 0.00 in0.0 mm 0.00 in0.0 mm
04:02 PM 34.1°F1.2°C 34.5°F1.4°C 78% Calm Calm -- 30.02 in1016.6 mb 0.00 in0.0 mm 0.00 in0.0 mm 0.00 in0.0 mm
04:05 PM 34.1°F1.2°C 34.8°F1.6°C 79% Calm Calm -- 30.03 in1016.9 mb 0.00 in0.0 mm 0.00 in0.0 mm 0.00 in0.0 mm
04:08 PM 34.1°F1.2°C 34.6°F1.4°C 78% Calm Calm -- 30.03 in1016.9 mb 0.00 in0.0 mm 0.00 in0.0 mm 0.00 in0.0 mm
04:11 PM 34.1°F1.2°C 34.7°F1.5°C 79% Calm Calm -- 30.03 in1016.9 mb 0.00 in0.0 mm 0.00 in0.0 mm 0.00 in0.0 mm
04:20 PM 34.0°F1.1°C 34.7°F1.5°C 79% Calm Calm -- 30.02 in1016.6 mb 0.00 in0.0 mm 0.00 in0.0 mm 0.00 in0.0 mm
04:23 PM 33.9°F1.1°C 34.6°F1.4°C 79% Calm Calm -- 30.02 in1016.6 mb 0.00 in0.0 mm 0.00 in0.0 mm 0.00 in0.0 mm
04:29 PM 33.7°F0.9°C 34.3°F1.3°C 78% 0.8 mph S1.3 kmh S 0.8 mph1.3 kmh 30.03 in1016.9 mb 0.00 in0.0 mm 0.00 in0.0 mm 0.00 in0.0 mm
04:32 PM 33.7°F0.9°C 34.6°F1.4°C 79% Calm Calm -- 30.03 in1016.9 mb 0.00 in0.0 mm 0.00 in0.0 mm 0.00 in0.0 mm
04:35 PM 33.7°F0.9°C 34.6°F1.4°C 79% Calm Calm -- 30.03 in1016.9 mb 0.00 in0.0 mm 0.00 in0.0 mm 0.00 in0.0 mm
04:38 PM 33.6°F0.9°C 34.5°F1.4°C 79% Calm Calm -- 30.02 in1016.6 mb 0.00 in0.0 mm 0.00 in0.0 mm 0.00 in0.0 mm
04:41 PM 33.5°F0.8°C 34.3°F1.3°C 79% 1.2 mph S1.9 kmh S 1.2 mph1.9 kmh 30.03 in1016.9 mb 0.00 in0.0 mm 0.00 in0.0 mm 0.00 in0.0 mm
04:47 PM 33.2°F0.7°C 33.9°F1.1°C 78% 1.6 mph SSE2.6 kmh SSE 1.6 mph2.6 kmh 30.03 in1016.9 mb 0.00 in0.0 mm 0.00 in0.0 mm 0.00 in0.0 mm
04:50 PM 33.2°F0.7°C 34.0°F1.1°C 79% Calm Calm -- 30.03 in1016.9 mb 0.00 in0.0 mm 0.00 in0.0 mm 0.00 in0.0 mm
04:53 PM 33.2°F0.7°C 34.2°F1.2°C 79% Calm Calm -- 30.03 in1016.9 mb 0.00 in0.0 mm 0.00 in0.0 mm 0.00 in0.0 mm
04:56 PM 33.2°F0.7°C 33.9°F1.1°C 78% Calm Calm -- 30.03 in1016.9 mb 0.00 in0.0 mm 0.00 in0.0 mm 0.00 in0.0 mm
04:59 PM 33.1°F0.6°C 33.7°F0.9°C 78% Calm Calm -- 30.03 in1016.9 mb 0.00 in0.0 mm 0.00 in0.0 mm 0.00 in0.0 mm
05:02 PM 33.1°F0.6°C 33.9°F1.1°C 78% 0.8 mph SSE1.3 kmh SSE 0.8 mph1.3 kmh 30.03 in1016.9 mb 0.00 in0.0 mm 0.00 in0.0 mm 0.00 in0.0 mm
05:05 PM 33.0°F0.6°C 33.8°F1.0°C 78% Calm Calm -- 30.03 in1016.9 mb 0.00 in0.0 mm 0.00 in0.0 mm 0.00 in0.0 mm
05:08 PM 33.0°F0.6°C 33.8°F1.0°C 79% 2.4 mph SSE3.9 kmh SSE 2.4 mph3.9 kmh 30.03 in1016.9 mb 0.00 in0.0 mm 0.00 in0.0 mm 0.00 in0.0 mm
05:11 PM 32.9°F0.5°C 33.9°F1.1°C 79% 1.6 mph SE2.6 kmh SE 1.6 mph2.6 kmh 30.03 in1016.9 mb 0.00 in0.0 mm 0.00 in0.0 mm 0.00 in0.0 mm
05:14 PM 32.8°F0.4°C 33.9°F1.1°C 80% 3.2 mph NNW5.1 kmh NNW 3.3 mph5.3 kmh 30.03 in1016.9 mb 0.00 in0.0 mm 0.00 in0.0 mm 0.00 in0.0 mm
05:17 PM 32.8°F0.4°C 33.8°F1.0°C 80% 0.8 mph SSE1.3 kmh SSE 0.8 mph1.3 kmh 30.03 in1016.9 mb 0.00 in0.0 mm 0.00 in0.0 mm 0.00 in0.0 mm
05:20 PM 32.8°F0.4°C 33.7°F0.9°C 80% 0.4 mph S0.6 kmh S 0.4 mph0.6 kmh 30.03 in1016.9 mb 0.00 in0.0 mm 0.00 in0.0 mm 0.00 in0.0 mm
05:23 PM 32.8°F0.4°C 33.8°F1.0°C 79% Calm Calm -- 30.03 in1016.9 mb 0.00 in0.0 mm 0.00 in0.0 mm 0.00 in0.0 mm
05:26 PM 32.8°F0.4°C 33.5°F0.8°C 79% 1.2 mph S1.9 kmh S 1.2 mph1.9 kmh 30.03 in1016.9 mb 0.00 in0.0 mm 0.00 in0.0 mm 0.00 in0.0 mm
05:29 PM 32.7°F0.4°C 33.6°F0.9°C 79% 2.8 mph SE4.5 kmh SE 2.9 mph4.7 kmh 30.03 in1016.9 mb 0.00 in0.0 mm 0.00 in0.0 mm 0.00 in0.0 mm
05:32 PM 32.7°F0.4°C 33.9°F1.1°C 80% Calm Calm -- 30.03 in1016.9 mb 0.00 in0.0 mm 0.00 in0.0 mm 0.00 in0.0 mm
05:35 PM 32.7°F0.4°C 34.0°F1.1°C 80% Calm Calm -- 30.03 in1016.9 mb 0.00 in0.0 mm 0.00 in0.0 mm 0.00 in0.0 mm
05:38 PM 32.7°F0.4°C 33.6°F0.9°C 80% 0.4 mph SSW0.6 kmh SSW 0.4 mph0.6 kmh 30.03 in1016.9 mb 0.00 in0.0 mm 0.00 in0.0 mm 0.00 in0.0 mm
05:41 PM 32.7°F0.4°C 33.6°F0.9°C 79% Calm Calm -- 30.03 in1016.9 mb 0.00 in0.0 mm 0.00 in0.0 mm 0.00 in0.0 mm
05:47 PM 32.6°F0.3°C 33.8°F1.0°C 80% Calm Calm -- 30.03 in1016.9 mb 0.00 in0.0 mm 0.00 in0.0 mm 0.00 in0.0 mm
05:50 PM 32.5°F0.3°C 33.5°F0.8°C 79% Calm Calm -- 30.03 in1016.9 mb 0.00 in0.0 mm 0.00 in0.0 mm 0.00 in0.0 mm
05:56 PM 32.6°F0.3°C 33.9°F1.1°C 80% Calm Calm -- 30.03 in1016.9 mb 0.00 in0.0 mm 0.00 in0.0 mm 0.00 in0.0 mm
05:59 PM 32.6°F0.3°C 33.9°F1.1°C 80% Calm Calm -- 30.03 in1016.9 mb 0.00 in0.0 mm 0.00 in0.0 mm 0.00 in0.0 mm
06:02 PM 32.7°F0.4°C 33.7°F0.9°C 80% Calm Calm -- 30.03 in1016.9 mb 0.00 in0.0 mm 0.00 in0.0 mm 0.00 in0.0 mm
06:05 PM 32.6°F0.3°C 33.6°F0.9°C 80% Calm Calm -- 30.03 in1016.9 mb 0.00 in0.0 mm 0.00 in0.0 mm 0.00 in0.0 mm
06:08 PM 32.5°F0.3°C 34.1°F1.2°C 80% Calm Calm -- 30.03 in1016.9 mb 0.00 in0.0 mm 0.00 in0.0 mm 0.00 in0.0 mm
06:14 PM 32.6°F0.3°C 33.6°F0.9°C 80% Calm Calm -- 30.03 in1016.9 mb 0.00 in0.0 mm 0.00 in0.0 mm 0.00 in0.0 mm
06:17 PM 32.7°F0.4°C 33.5°F0.8°C 80% 2.0 mph SE3.2 kmh SE 2.0 mph3.2 kmh 30.03 in1016.9 mb 0.00 in0.0 mm 0.00 in0.0 mm 0.00 in0.0 mm
06:20 PM 32.6°F0.3°C 33.4°F0.8°C 80% 1.6 mph SSE2.6 kmh SSE 1.6 mph2.6 kmh 30.02 in1016.6 mb 0.00 in0.0 mm 0.00 in0.0 mm 0.00 in0.0 mm
06:23 PM 32.6°F0.3°C 33.6°F0.9°C 80% Calm Calm -- 30.03 in1016.9 mb 0.00 in0.0 mm 0.00 in0.0 mm 0.00 in0.0 mm
06:29 PM 32.6°F0.3°C 33.5°F0.8°C 80% Calm Calm -- 30.03 in1016.9 mb 0.00 in0.0 mm 0.00 in0.0 mm 0.00 in0.0 mm
06:32 PM 32.7°F0.4°C 33.7°F0.9°C 80% 2.4 mph SSE3.9 kmh SSE 2.4 mph3.9 kmh 30.03 in1016.9 mb 0.00 in0.0 mm 0.00 in0.0 mm 0.00 in0.0 mm
06:35 PM 32.6°F0.3°C 33.7°F0.9°C 80% Calm Calm -- 30.03 in1016.9 mb 0.00 in0.0 mm 0.00 in0.0 mm 0.00 in0.0 mm
06:38 PM 32.7°F0.4°C 33.9°F1.1°C 80% Calm Calm -- 30.03 in1016.9 mb 0.00 in0.0 mm 0.00 in0.0 mm 0.00 in0.0 mm
06:41 PM 32.6°F0.3°C 33.6°F0.9°C 80% Calm Calm -- 30.03 in1016.9 mb 0.00 in0.0 mm 0.00 in0.0 mm 0.00 in0.0 mm
06:44 PM 32.6°F0.3°C 33.9°F1.1°C 80% Calm Calm -- 30.03 in1016.9 mb 0.00 in0.0 mm 0.00 in0.0 mm 0.00 in0.0 mm
06:47 PM 32.6°F0.3°C 33.6°F0.9°C 79% Calm Calm -- 30.03 in1016.9 mb 0.00 in0.0 mm 0.00 in0.0 mm 0.00 in0.0 mm
06:50 PM 32.6°F0.3°C 33.9°F1.1°C 80% Calm Calm -- 30.03 in1016.9 mb 0.00 in0.0 mm 0.00 in0.0 mm 0.00 in0.0 mm
06:53 PM 32.7°F0.4°C 33.7°F0.9°C 80% 2.0 mph SSE3.2 kmh SSE 2.0 mph3.2 kmh 30.03 in1016.9 mb 0.00 in0.0 mm 0.00 in0.0 mm 0.00 in0.0 mm
06:56 PM 32.8°F0.4°C 33.7°F0.9°C 80% Calm Calm -- 30.03 in1016.9 mb 0.00 in0.0 mm 0.00 in0.0 mm 0.00 in0.0 mm
06:59 PM 32.7°F0.4°C 33.9°F1.1°C 81% Calm Calm -- 30.03 in1016.9 mb 0.00 in0.0 mm 0.00 in0.0 mm 0.00 in0.0 mm
07:02 PM 32.7°F0.4°C 33.7°F0.9°C 80% Calm Calm -- 30.03 in1016.9 mb 0.00 in0.0 mm 0.00 in0.0 mm 0.00 in0.0 mm
07:08 PM 32.8°F0.4°C 33.7°F0.9°C 81% Calm Calm -- 30.03 in1016.9 mb 0.00 in0.0 mm 0.00 in0.0 mm 0.00 in0.0 mm
07:11 PM 32.7°F0.4°C 33.9°F1.1°C 80% Calm Calm -- 30.03 in1016.9 mb 0.00 in0.0 mm 0.00 in0.0 mm 0.00 in0.0 mm
07:14 PM 32.7°F0.4°C 33.6°F0.9°C 80% Calm Calm -- 30.03 in1016.9 mb 0.00 in0.0 mm 0.00 in0.0 mm 0.00 in0.0 mm
07:17 PM 32.7°F0.4°C 33.8°F1.0°C 81% Calm Calm -- 30.03 in1016.9 mb 0.00 in0.0 mm 0.00 in0.0 mm 0.00 in0.0 mm
07:23 PM 32.6°F0.3°C 33.7°F0.9°C 80% Calm Calm -- 30.03 in1016.9 mb 0.00 in0.0 mm 0.00 in0.0 mm 0.00 in0.0 mm
07:29 PM 32.5°F0.3°C 34.2°F1.2°C 81% Calm Calm -- 30.03 in1016.9 mb 0.00 in0.0 mm 0.00 in0.0 mm 0.00 in0.0 mm
07:32 PM 32.5°F0.3°C 34.0°F1.1°C 82% 0.8 mph SE1.3 kmh SE 0.8 mph1.3 kmh 30.03 in1016.9 mb 0.00 in0.0 mm 0.00 in0.0 mm 0.00 in0.0 mm
07:35 PM 32.5°F0.3°C 34.3°F1.3°C 82% Calm Calm -- 30.03 in1016.9 mb 0.00 in0.0 mm 0.00 in0.0 mm 0.00 in0.0 mm
07:38 PM 32.5°F0.3°C 34.0°F1.1°C 82% Calm Calm -- 30.03 in1016.9 mb 0.00 in0.0 mm 0.00 in0.0 mm 0.00 in0.0 mm
07:41 PM 32.5°F0.3°C 34.1°F1.2°C 81% Calm Calm -- 30.03 in1016.9 mb 0.00 in0.0 mm 0.00 in0.0 mm 0.00 in0.0 mm
07:44 PM 32.6°F0.3°C 33.8°F1.0°C 81% 0.8 mph SSE1.3 kmh SSE 0.8 mph1.3 kmh 30.03 in1016.9 mb 0.00 in0.0 mm 0.00 in0.0 mm 0.00 in0.0 mm
07:47 PM 32.7°F0.4°C 34.1°F1.2°C 82% 2.8 mph S4.5 kmh S 2.9 mph4.7 kmh 30.03 in1016.9 mb 0.00 in0.0 mm 0.00 in0.0 mm 0.00 in0.0 mm
07:50 PM 32.8°F0.4°C 33.8°F1.0°C 81% 0.4 mph S0.6 kmh S 0.4 mph0.6 kmh 30.03 in1016.9 mb 0.00 in0.0 mm 0.00 in0.0 mm 0.00 in0.0 mm
07:53 PM 32.7°F0.4°C 34.1°F1.2°C 82% Calm Calm -- 30.03 in1016.9 mb 0.00 in0.0 mm 0.00 in0.0 mm 0.00 in0.0 mm
07:56 PM 32.7°F0.4°C 34.2°F1.2°C 81% Calm Calm -- 30.03 in1016.9 mb 0.00 in0.0 mm 0.00 in0.0 mm 0.00 in0.0 mm
07:59 PM 32.6°F0.3°C 34.0°F1.1°C 82% Calm Calm -- 30.03 in1016.9 mb 0.00 in0.0 mm 0.00 in0.0 mm 0.00 in0.0 mm
08:02 PM 32.5°F0.3°C 34.0°F1.1°C 82% Calm Calm -- 30.03 in1016.9 mb 0.00 in0.0 mm 0.00 in0.0 mm 0.00 in0.0 mm
08:05 PM 32.5°F0.3°C 34.2°F1.2°C 82% Calm Calm -- 30.03 in1016.9 mb 0.00 in0.0 mm 0.00 in0.0 mm 0.00 in0.0 mm
08:08 PM 32.3°F0.2°C 34.5°F1.4°C 83% 3.2 mph SE5.1 kmh SE 3.3 mph5.3 kmh 30.03 in1016.9 mb 0.00 in0.0 mm 0.00 in0.0 mm 0.00 in0.0 mm
08:11 PM 32.6°F0.3°C 34.0°F1.1°C 82% 1.2 mph NNW1.9 kmh NNW 1.2 mph1.9 kmh 30.03 in1016.9 mb 0.00 in0.0 mm 0.00 in0.0 mm 0.00 in0.0 mm
08:14 PM 32.7°F0.4°C 34.0°F1.1°C 82% Calm Calm -- 30.03 in1016.9 mb 0.00 in0.0 mm 0.00 in0.0 mm 0.00 in0.0 mm
08:17 PM 32.7°F0.4°C 34.1°F1.2°C 82% 2.0 mph SSE3.2 kmh SSE 2.0 mph3.2 kmh 30.03 in1016.9 mb 0.00 in0.0 mm 0.00 in0.0 mm 0.00 in0.0 mm
08:20 PM 32.7°F0.4°C 34.0°F1.1°C 82% Calm Calm -- 30.03 in1016.9 mb 0.00 in0.0 mm 0.00 in0.0 mm 0.00 in0.0 mm
08:23 PM 32.7°F0.4°C 34.0°F1.1°C 82% 2.4 mph NNW3.9 kmh NNW 2.4 mph3.9 kmh 30.03 in1016.9 mb 0.00 in0.0 mm 0.00 in0.0 mm 0.00 in0.0 mm
08:26 PM 32.8°F0.4°C 34.0°F1.1°C 82% 1.2 mph SSE1.9 kmh SSE 1.2 mph1.9 kmh 30.03 in1016.9 mb 0.00 in0.0 mm 0.00 in0.0 mm 0.00 in0.0 mm
08:29 PM 32.8°F0.4°C 34.0°F1.1°C 82% 2.4 mph SE3.9 kmh SE 2.4 mph3.9 kmh 30.03 in1016.9 mb 0.00 in0.0 mm 0.00 in0.0 mm 0.00 in0.0 mm
08:32 PM 32.6°F0.3°C 34.4°F1.3°C 83% 3.2 mph SE5.1 kmh SE 3.3 mph5.3 kmh 30.03 in1016.9 mb 0.00 in0.0 mm 0.00 in0.0 mm 0.00 in0.0 mm
08:35 PM 32.6°F0.3°C 34.2°F1.2°C 83% 2.8 mph SE4.5 kmh SE 2.8 mph4.5 kmh 30.01 in1016.3 mb 0.00 in0.0 mm 0.00 in0.0 mm 0.00 in0.0 mm
08:38 PM 32.7°F0.4°C 34.0°F1.1°C 83% 2.8 mph SE4.5 kmh SE 2.9 mph4.7 kmh 30.01 in1016.3 mb 0.00 in0.0 mm 0.00 in0.0 mm 0.00 in0.0 mm
08:41 PM 32.7°F0.4°C 34.1°F1.2°C 83% 2.3 mph NNW3.7 kmh NNW 2.3 mph3.7 kmh 30.01 in1016.3 mb 0.00 in0.0 mm 0.00 in0.0 mm 0.00 in0.0 mm
08:44 PM 32.6°F0.3°C 34.2°F1.2°C 83% 3.2 mph NNW5.1 kmh NNW 3.3 mph5.3 kmh 30.01 in1016.3 mb 0.00 in0.0 mm 0.00 in0.0 mm 0.00 in0.0 mm
08:47 PM 32.8°F0.4°C 33.9°F1.1°C 83% 4.9 mph SSE7.9 kmh SSE 4.9 mph7.9 kmh 30.01 in1016.3 mb 0.00 in0.0 mm 0.00 in0.0 mm 0.00 in0.0 mm
08:50 PM 32.8°F0.4°C 34.0°F1.1°C 83% 1.6 mph SSE2.6 kmh SSE 1.6 mph2.6 kmh 30.01 in1016.3 mb 0.00 in0.0 mm 0.00 in0.0 mm 0.00 in0.0 mm
08:53 PM 32.6°F0.3°C 34.4°F1.3°C 83% 1.6 mph SE2.6 kmh SE 1.6 mph2.6 kmh 30.01 in1016.3 mb 0.00 in0.0 mm 0.00 in0.0 mm 0.00 in0.0 mm
08:56 PM 32.6°F0.3°C 34.1°F1.2°C 83% 0.8 mph SSE1.3 kmh SSE 0.8 mph1.3 kmh 30.01 in1016.3 mb 0.00 in0.0 mm 0.00 in0.0 mm 0.00 in0.0 mm
08:59 PM 32.6°F0.3°C 34.2°F1.2°C 83% 0.8 mph S1.3 kmh S 0.8 mph1.3 kmh 30.02 in1016.6 mb 0.00 in0.0 mm 0.00 in0.0 mm 0.00 in0.0 mm
09:02 PM 32.6°F0.3°C 34.2°F1.2°C 83% Calm Calm -- 30.02 in1016.6 mb 0.00 in0.0 mm 0.00 in0.0 mm 0.00 in0.0 mm
09:05 PM 32.8°F0.4°C 34.3°F1.3°C 82% Calm Calm -- 30.02 in1016.6 mb 0.00 in0.0 mm 0.00 in0.0 mm 0.00 in0.0 mm
09:08 PM 32.9°F0.5°C 34.1°F1.2°C 82% 2.0 mph SSE3.2 kmh SSE 2.0 mph3.2 kmh 30.03 in1016.9 mb 0.00 in0.0 mm 0.00 in0.0 mm 0.00 in0.0 mm
09:11 PM 32.8°F0.4°C 34.1°F1.2°C 82% Calm Calm -- 30.03 in1016.9 mb 0.00 in0.0 mm 0.00 in0.0 mm 0.00 in0.0 mm
09:14 PM 32.8°F0.4°C 34.0°F1.1°C 82% Calm Calm -- 30.03 in1016.9 mb 0.00 in0.0 mm 0.00 in0.0 mm 0.00 in0.0 mm
09:17 PM 32.7°F0.4°C 34.3°F1.3°C 82% 2.8 mph SW4.5 kmh SW 2.9 mph4.7 kmh 30.03 in1016.9 mb 0.00 in0.0 mm 0.00 in0.0 mm 0.00 in0.0 mm
09:20 PM 32.8°F0.4°C 34.3°F1.3°C 82% Calm Calm -- 30.03 in1016.9 mb 0.00 in0.0 mm 0.00 in0.0 mm 0.00 in0.0 mm
09:23 PM 32.7°F0.4°C 34.2°F1.2°C 82% Calm Calm -- 30.03 in1016.9 mb 0.00 in0.0 mm 0.00 in0.0 mm 0.00 in0.0 mm
09:26 PM 32.8°F0.4°C 34.2°F1.2°C 82% Calm Calm -- 30.03 in1016.9 mb 0.00 in0.0 mm 0.00 in0.0 mm 0.00 in0.0 mm
09:29 PM 32.7°F0.4°C 34.3°F1.3°C 82% 5.2 mph WNW8.4 kmh WNW 5.2 mph8.4 kmh 30.03 in1016.9 mb 0.00 in0.0 mm 0.00 in0.0 mm 0.00 in0.0 mm
09:32 PM 32.9°F0.5°C 34.0°F1.1°C 82% Calm Calm -- 30.03 in1016.9 mb 0.00 in0.0 mm 0.00 in0.0 mm 0.00 in0.0 mm
09:35 PM 32.8°F0.4°C 34.2°F1.2°C 82% Calm Calm -- 30.03 in1016.9 mb 0.00 in0.0 mm 0.00 in0.0 mm 0.00 in0.0 mm
09:38 PM 32.7°F0.4°C 34.4°F1.3°C 82% Calm Calm -- 30.02 in1016.6 mb 0.00 in0.0 mm 0.00 in0.0 mm 0.00 in0.0 mm
09:41 PM 32.9°F0.5°C 34.0°F1.1°C 82% Calm Calm -- 30.02 in1016.6 mb 0.00 in0.0 mm 0.00 in0.0 mm 0.00 in0.0 mm
09:44 PM 32.9°F0.5°C 34.2°F1.2°C 82% 2.4 mph NNW3.9 kmh NNW 2.4 mph3.9 kmh 30.02 in1016.6 mb 0.00 in0.0 mm 0.00 in0.0 mm 0.00 in0.0 mm
09:47 PM 32.9°F0.5°C 34.2°F1.2°C 82% 3.6 mph SW5.8 kmh SW 3.7 mph6.0 kmh 30.02 in1016.6 mb 0.00 in0.0 mm 0.00 in0.0 mm 0.00 in0.0 mm
09:50 PM 32.7°F0.4°C 34.1°F1.2°C 82% 0.8 mph S1.3 kmh S 0.8 mph1.3 kmh 30.02 in1016.6 mb 0.00 in0.0 mm 0.00 in0.0 mm 0.00 in0.0 mm
09:53 PM 32.8°F0.4°C 33.9°F1.1°C 81% 2.0 mph S3.2 kmh S 2.0 mph3.2 kmh 30.01 in1016.3 mb 0.00 in0.0 mm 0.00 in0.0 mm 0.00 in0.0 mm
09:56 PM 32.8°F0.4°C 34.4°F1.3°C 82% Calm Calm -- 30.02 in1016.6 mb 0.00 in0.0 mm 0.00 in0.0 mm 0.00 in0.0 mm
09:59 PM 32.8°F0.4°C 34.1°F1.2°C 82% 0.8 mph S1.3 kmh S 0.8 mph1.3 kmh 30.01 in1016.3 mb 0.00 in0.0 mm 0.00 in0.0 mm 0.00 in0.0 mm
10:02 PM 32.8°F0.4°C 34.3°F1.3°C 82% Calm Calm -- 30.01 in1016.3 mb 0.00 in0.0 mm 0.00 in0.0 mm 0.00 in0.0 mm
10:05 PM 32.7°F0.4°C 34.2°F1.2°C 82% Calm Calm -- 30.01 in1016.3 mb 0.00 in0.0 mm 0.00 in0.0 mm 0.00 in0.0 mm
10:11 PM 32.7°F0.4°C 34.3°F1.3°C 82% 0.4 mph SW0.6 kmh SW 0.4 mph0.6 kmh 30.01 in1016.3 mb 0.00 in0.0 mm 0.00 in0.0 mm 0.00 in0.0 mm
10:14 PM 32.8°F0.4°C 34.2°F1.2°C 82% Calm Calm -- 30.01 in1016.3 mb 0.00 in0.0 mm 0.00 in0.0 mm 0.00 in0.0 mm
10:20 PM 32.7°F0.4°C 34.1°F1.2°C 82% Calm Calm -- 30.01 in1016.3 mb 0.00 in0.0 mm 0.00 in0.0 mm 0.00 in0.0 mm
10:26 PM 32.5°F0.3°C 34.3°F1.3°C 82% Calm Calm -- 30.01 in1016.3 mb 0.00 in0.0 mm 0.00 in0.0 mm 0.00 in0.0 mm
10:29 PM 32.2°F0.1°C 34.6°F1.4°C 83% 1.6 mph SE2.6 kmh SE 1.6 mph2.6 kmh 30.00 in1015.9 mb 0.00 in0.0 mm 0.00 in0.0 mm 0.00 in0.0 mm
10:32 PM 32.2°F0.1°C 34.6°F1.4°C 84% Calm Calm -- 30.00 in1015.9 mb 0.00 in0.0 mm 0.00 in0.0 mm 0.00 in0.0 mm
10:38 PM 32.2°F0.1°C 34.3°F1.3°C 83% Calm Calm -- 30.00 in1015.9 mb 0.00 in0.0 mm 0.00 in0.0 mm 0.00 in0.0 mm
10:41 PM 32.2°F0.1°C 34.5°F1.4°C 83% Calm Calm -- 30.01 in1016.3 mb 0.00 in0.0 mm 0.00 in0.0 mm 0.00 in0.0 mm
10:47 PM 32.1°F0.1°C 34.2°F1.2°C 82% Calm Calm -- 30.01 in1016.3 mb 0.00 in0.0 mm 0.00 in0.0 mm 0.00 in0.0 mm
10:50 PM 32.0°F0.0°C 34.5°F1.4°C 83% Calm Calm -- 30.01 in1016.3 mb 0.00 in0.0 mm 0.00 in0.0 mm 0.00 in0.0 mm
10:53 PM 32.0°F0.0°C 34.3°F1.3°C 83% Calm Calm -- 30.00 in1015.9 mb 0.00 in0.0 mm 0.00 in0.0 mm 0.00 in0.0 mm
10:56 PM 32.0°F0.0°C 34.4°F1.3°C 83% Calm Calm -- 30.01 in1016.3 mb 0.00 in0.0 mm 0.00 in0.0 mm 0.00 in0.0 mm
10:59 PM 32.1°F0.1°C 34.1°F1.2°C 82% Calm Calm -- 30.00 in1015.9 mb 0.00 in0.0 mm 0.00 in0.0 mm 0.00 in0.0 mm
11:05 PM 32.1°F0.1°C 34.3°F1.3°C 83% Calm Calm -- 30.01 in1016.3 mb 0.00 in0.0 mm 0.00 in0.0 mm 0.00 in0.0 mm
11:08 PM 32.2°F0.1°C 34.1°F1.2°C 82% Calm Calm -- 30.01 in1016.3 mb 0.00 in0.0 mm 0.00 in0.0 mm 0.00 in0.0 mm
11:11 PM 32.3°F0.2°C 34.3°F1.3°C 83% 0.8 mph S1.3 kmh S 0.8 mph1.3 kmh 30.01 in1016.3 mb 0.00 in0.0 mm 0.00 in0.0 mm 0.00 in0.0 mm
11:14 PM 32.3°F0.2°C 34.1°F1.2°C 83% 0.8 mph SW1.3 kmh SW 0.8 mph1.3 kmh 30.01 in1016.3 mb 0.00 in0.0 mm 0.00 in0.0 mm 0.00 in0.0 mm
11:17 PM 32.2°F0.1°C 34.3°F1.3°C 83% Calm Calm -- 30.00 in1015.9 mb 0.00 in0.0 mm 0.00 in0.0 mm 0.00 in0.0 mm
11:23 PM 31.8°F-0.1°C 34.1°F1.2°C 82% Calm Calm -- 30.01 in1016.3 mb 0.00 in0.0 mm 0.00 in0.0 mm 0.00 in0.0 mm
11:26 PM 31.6°F-0.2°C 34.1°F1.2°C 82% 0.4 mph WSW0.6 kmh WSW 0.4 mph0.6 kmh 30.01 in1016.3 mb 0.00 in0.0 mm 0.00 in0.0 mm 0.00 in0.0 mm
11:29 PM 32.1°F0.1°C 34.0°F1.1°C 82% 0.4 mph NNW0.6 kmh NNW 0.4 mph0.6 kmh 30.01 in1016.3 mb 0.00 in0.0 mm 0.00 in0.0 mm 0.00 in0.0 mm
11:32 PM 32.1°F0.1°C 34.0°F1.1°C 82% 1.2 mph SW1.9 kmh SW 1.2 mph1.9 kmh 30.00 in1015.9 mb 0.00 in0.0 mm 0.00 in0.0 mm 0.00 in0.0 mm
11:38 PM 32.1°F0.1°C 33.9°F1.1°C 82% 3.2 mph SW5.1 kmh SW 3.3 mph5.3 kmh 30.01 in1016.3 mb 0.00 in0.0 mm 0.00 in0.0 mm 0.00 in0.0 mm
11:41 PM 32.1°F0.1°C 33.9°F1.1°C 82% 3.2 mph SSE5.1 kmh SSE 3.3 mph5.3 kmh 30.00 in1015.9 mb 0.00 in0.0 mm 0.00 in0.0 mm 0.00 in0.0 mm
11:44 PM 32.1°F0.1°C 33.6°F0.9°C 82% 3.6 mph S5.8 kmh S 3.6 mph5.8 kmh 30.01 in1016.3 mb 0.00 in0.0 mm 0.00 in0.0 mm 0.00 in0.0 mm
11:47 PM 32.2°F0.1°C 33.5°F0.8°C 82% 3.6 mph NNW5.8 kmh NNW 3.7 mph6.0 kmh 30.00 in1015.9 mb 0.00 in0.0 mm 0.00 in0.0 mm 0.00 in0.0 mm
11:50 PM 32.1°F0.1°C 33.6°F0.9°C 82% 5.7 mph NNW9.2 kmh NNW 5.7 mph9.2 kmh 30.00 in1015.9 mb 0.00 in0.0 mm 0.00 in0.0 mm 0.00 in0.0 mm
11:53 PM 32.1°F0.1°C 33.7°F0.9°C 82% Calm Calm -- 30.01 in1016.3 mb 0.00 in0.0 mm 0.00 in0.0 mm 0.00 in0.0 mm
11:56 PM 32.1°F0.1°C 33.7°F0.9°C 82% 0.4 mph SE0.6 kmh SE 0.4 mph0.6 kmh 30.00 in1015.9 mb 0.00 in0.0 mm 0.00 in0.0 mm 0.00 in0.0 mm